M I D A S
Marine Information and Data Acquisition System
Tripno 430 of the Zeeleeuw from 2003-02-13 07:17:29 to 2003-02-13 14:59:40
Back to CruiseResearch ActivitiesStationsMapUnderway DataData graphs

EquipmentUnitsComment
TimeDGPSUTC
LatitudeDGPSDM.mWGS84
LongitudeDGPSDM.mWGS84
TemperatureSBE03/SBE38deg celciusITS90
ConductivitySBE21S/mITS90
SalinitySBE21 Practical Salinity Units
ChlorophylAChelsea fluorimeterg/lCalibrated in Aceton
Missing or incorrect values are displayed as -999
Sea surface data collected by the RV Zeeleeuw from 2003-02-13 07:17:29 to 2003-02-13 14:59:40
                                                                                    Next 1000 lines
Time Latitude Longitude Temperature Conductivity Salinity ChlorophylA
2003-02-13 07:17:37 51°13.595 2°56.103 11.886736 3.654212 29.571867 -0.848668
2003-02-13 07:17:42 51°13.595 2°56.103 11.890154 3.654212 29.571867 -0.882377
2003-02-13 07:17:47 51°13.595 2°56.103 11.89102 3.654212 29.571288 -0.848668
2003-02-13 07:17:52 51°13.595 2°56.103 11.889926 3.654212 29.570708 -0.848668
2003-02-13 07:17:57 51°13.595 2°56.103 11.892387 3.654212 29.570708 -0.848668
2003-02-13 07:18:02 51°13.595 2°56.103 11.890792 3.654317 29.572235 -0.882377
2003-02-13 07:18:07 51°13.595 2°56.103 11.890792 3.654317 29.572235 -0.882377
2003-02-13 07:18:12 51°13.594 2°56.103 11.894073 3.654317 29.571655 -0.882377
2003-02-13 07:18:17 51°13.594 2°56.103 11.893116 3.654317 29.571655 -0.848668
2003-02-13 07:18:22 51°13.594 2°56.103 11.892159 3.654317 29.571655 -0.882377
2003-02-13 07:18:27 51°13.594 2°56.103 11.892433 3.654317 29.571655 -0.848668
2003-02-13 07:18:32 51°13.594 2°56.103 11.895349 3.654212 29.570708 -0.848668
2003-02-13 07:18:37 51°13.594 2°56.103 11.895349 3.654212 29.570708 -0.848668
2003-02-13 07:18:42 51°13.594 2°56.102 11.898585 3.654212 29.570129 -0.848668
2003-02-13 07:18:47 51°13.594 2°56.102 11.902366 3.654317 29.570496 -0.848668
2003-02-13 07:18:52 51°13.594 2°56.101 11.914166 3.654317 29.569917 -0.848668
2003-02-13 07:18:57 51°13.595 2°56.1 11.9128 3.654317 29.570496 -0.848668
2003-02-13 07:19:02 51°13.596 2°56.097 11.912936 3.654317 29.569917 -0.882377
2003-02-13 07:19:07 51°13.596 2°56.094 11.912936 3.654317 29.569917 -0.882377
2003-02-13 07:19:12 51°13.597 2°56.09 11.910977 3.654317 29.570496 -0.848668
2003-02-13 07:19:16 51°13.598 2°56.086 11.914075 3.654422 29.571443 -0.848668
2003-02-13 07:19:22 51°13.6 2°56.081 11.914166 3.654422 29.571443 -0.882377
2003-02-13 07:19:27 51°13.601 2°56.075 11.912982 3.654317 29.570496 -0.882377
2003-02-13 07:19:32 51°13.603 2°56.069 11.913665 3.654317 29.570496 -0.882377
2003-02-13 07:19:37 51°13.605 2°56.062 11.913665 3.654317 29.570496 -0.882377
2003-02-13 07:19:42 51°13.606 2°56.055 11.90387 3.654422 29.571443 -0.882377
2003-02-13 07:19:47 51°13.608 2°56.048 11.907879 3.654422 29.571443 -0.848668
2003-02-13 07:19:52 51°13.61 2°56.04 11.906285 3.654422 29.570864 -0.882377
2003-02-13 07:19:57 51°13.612 2°56.031 11.90952 3.654422 29.570864 -0.848668
2003-02-13 07:20:02 51°13.614 2°56.023 11.910613 3.654422 29.570864 -0.848668
2003-02-13 07:20:07 51°13.617 2°56.014 11.910613 3.654422 29.570864 -0.848668
2003-02-13 07:20:12 51°13.619 2°56.006 11.904326 3.654317 29.569337 -0.848668
2003-02-13 07:20:17 51°13.621 2°55.998 11.903733 3.654422 29.569705 -0.848668
2003-02-13 07:20:22 51°13.623 2°55.99 11.905556 3.654422 29.570284 -0.848668
2003-02-13 07:20:27 51°13.626 2°55.982 11.905601 3.654422 29.570284 -0.882377
2003-02-13 07:20:32 51°13.628 2°55.974 11.906695 3.654422 29.569705 -0.848668
2003-02-13 07:20:37 51°13.631 2°55.967 11.906695 3.654422 29.569705 -0.848668
2003-02-13 07:20:42 51°13.634 2°55.959 11.906923 3.654528 29.570652 -0.848668
2003-02-13 07:20:47 51°13.636 2°55.951 11.908062 3.654528 29.570652 -0.848668
2003-02-13 07:20:52 51°13.639 2°55.943 11.908745 3.654422 29.569125 -0.848668
2003-02-13 07:20:57 51°13.642 2°55.935 11.909292 3.654528 29.570652 -0.882377
2003-02-13 07:21:02 51°13.645 2°55.927 11.908882 3.654528 29.570072 -0.848668
2003-02-13 07:21:07 51°13.648 2°55.919 11.908882 3.654528 29.570072 -0.848668
2003-02-13 07:21:12 51°13.652 2°55.911 11.908244 3.654528 29.570072 -0.848668
2003-02-13 07:21:17 51°13.655 2°55.904 11.90592 3.654422 29.569705 -0.848668
2003-02-13 07:21:22 51°13.657 2°55.896 11.905055 3.654633 29.571019 -0.848668
2003-02-13 07:21:27 51°13.66 2°55.89 11.909611 3.654528 29.569493 -0.882377
2003-02-13 07:21:32 51°13.662 2°55.885 11.901637 3.654528 29.569493 -0.814958
2003-02-13 07:21:37 51°13.664 2°55.881 11.901637 3.654528 29.569493 -0.814958
2003-02-13 07:21:42 51°13.665 2°55.878 11.900772 3.654633 29.568701 -0.848668
2003-02-13 07:21:47 51°13.666 2°55.876 11.902002 3.654528 29.568334 -0.882377
2003-02-13 07:21:52 51°13.667 2°55.874 11.905055 3.654528 29.567755 -0.882377
2003-02-13 07:21:57 51°13.668 2°55.873 11.915169 3.654528 29.568334 -0.882377
2003-02-13 07:22:02 51°13.668 2°55.871 11.922913 3.654633 29.56986 -0.848668
2003-02-13 07:22:07 51°13.669 2°55.868 11.922913 3.654633 29.56986 -0.848668
2003-02-13 07:22:12 51°13.67 2°55.865 11.931202 3.654633 29.568701 -0.848668
2003-02-13 07:22:16 51°13.671 2°55.862 11.912572 3.654633 29.569281 -0.848668
2003-02-13 07:22:22 51°13.673 2°55.856 11.929289 3.654738 29.569648 -0.848668
2003-02-13 07:22:27 51°13.674 2°55.851 11.925372 3.654633 29.56986 -0.882377
2003-02-13 07:22:32 51°13.675 2°55.845 11.923004 3.654633 29.569281 -0.882377
2003-02-13 07:22:37 51°13.677 2°55.839 11.923004 3.654633 29.569281 -0.882377
2003-02-13 07:22:42 51°13.678 2°55.832 11.921683 3.654738 29.569648 -0.848668
2003-02-13 07:22:47 51°13.679 2°55.825 11.920134 3.654633 29.568701 -0.882377
2003-02-13 07:22:52 51°13.68 2°55.817 11.917264 3.654738 29.569069 -0.848668
2003-02-13 07:22:57 51°13.681 2°55.81 11.918585 3.654738 29.569069 -0.848668
2003-02-13 07:23:02 51°13.682 2°55.802 11.917993 3.654738 29.56849 -0.848668
2003-02-13 07:23:07 51°13.682 2°55.794 11.917993 3.654738 29.56849 -0.848668
2003-02-13 07:23:12 51°13.683 2°55.785 11.917674 3.654738 29.56849 -0.882377
2003-02-13 07:23:17 51°13.683 2°55.777 11.9169 3.654738 29.56849 -0.848668
2003-02-13 07:23:22 51°13.684 2°55.77 11.917401 3.654738 29.56791 -0.848668
2003-02-13 07:23:27 51°13.684 2°55.762 11.918266 3.654738 29.56849 -0.848668
2003-02-13 07:23:32 51°13.684 2°55.755 11.918585 3.654844 29.568857 -0.848668
2003-02-13 07:23:37 51°13.684 2°55.748 11.918585 3.654844 29.568857 -0.848668
2003-02-13 07:23:42 51°13.684 2°55.741 11.917765 3.654844 29.568278 -0.848668
2003-02-13 07:23:47 51°13.684 2°55.735 11.921455 3.654738 29.567331 -0.848668
2003-02-13 07:23:52 51°13.684 2°55.729 11.92059 3.654844 29.567698 -0.882377
2003-02-13 07:23:57 51°13.684 2°55.725 11.921227 3.654844 29.567119 -0.848668
2003-02-13 07:24:02 51°13.684 2°55.723 11.893618 3.654844 29.567698 -0.882377
2003-02-13 07:24:07 51°13.685 2°55.722 11.893618 3.654844 29.567698 -0.882377
2003-02-13 07:24:12 51°13.685 2°55.721 11.907561 3.654844 29.567698 -0.848668
2003-02-13 07:24:17 51°13.686 2°55.722 11.910385 3.654844 29.567119 -0.848668
2003-02-13 07:24:22 51°13.687 2°55.722 11.912435 3.654949 29.568066 -0.848668
2003-02-13 07:24:27 51°13.688 2°55.723 11.91526 3.654949 29.568645 -0.882377
2003-02-13 07:24:32 51°13.69 2°55.724 11.912709 3.654949 29.568645 -0.848668
2003-02-13 07:24:37 51°13.691 2°55.725 11.912709 3.654949 29.568645 -0.848668
2003-02-13 07:24:42 51°13.693 2°55.726 11.910385 3.654949 29.568645 -0.848668
2003-02-13 07:24:47 51°13.695 2°55.727 11.910977 3.654949 29.568066 -0.848668
2003-02-13 07:24:52 51°13.698 2°55.728 11.911023 3.654949 29.568066 -0.848668
2003-02-13 07:24:56 51°13.7 2°55.729 11.910476 3.654949 29.567487 -0.848668
2003-02-13 07:25:02 51°13.704 2°55.73 11.910977 3.654949 29.566907 -0.882377
2003-02-13 07:25:07 51°13.707 2°55.73 11.910977 3.654949 29.566907 -0.882377
2003-02-13 07:25:12 51°13.71 2°55.729 11.909793 3.655054 29.567854 -0.882377
2003-02-13 07:25:17 51°13.713 2°55.728 11.908244 3.65516 29.568222 -0.848668
2003-02-13 07:25:22 51°13.718 2°55.727 11.909611 3.655054 29.567275 -0.814958
2003-02-13 07:25:27 51°13.722 2°55.725 11.918494 3.655054 29.566117 -0.848668
2003-02-13 07:25:31 51°13.725 2°55.724 11.922412 3.655054 29.566696 -0.882377
2003-02-13 07:25:37 51°13.731 2°55.72 11.922412 3.655054 29.566696 -0.882377
2003-02-13 07:25:42 51°13.736 2°55.717 11.937214 3.65516 29.567063 -0.882377
2003-02-13 07:25:47 51°13.741 2°55.714 11.940766 3.655054 29.565537 -0.848668
2003-02-13 07:25:52 51°13.746 2°55.71 11.940037 3.65516 29.566484 -0.814958
2003-02-13 07:25:57 51°13.751 2°55.706 11.940993 3.655054 29.564958 -0.848668
2003-02-13 07:26:02 51°13.757 2°55.702 11.940857 3.65516 29.566484 -0.848668
2003-02-13 07:26:07 51°13.762 2°55.698 11.940857 3.65516 29.566484 -0.848668
2003-02-13 07:26:12 51°13.768 2°55.693 11.941995 3.65516 29.566484 -0.848668
2003-02-13 07:26:16 51°13.773 2°55.689 11.94236 3.655265 29.567431 -0.882377
2003-02-13 07:26:22 51°13.78 2°55.683 11.944363 3.655265 29.567431 -0.882377
2003-02-13 07:26:27 51°13.787 2°55.677 11.942952 3.65516 29.567063 -0.882377
2003-02-13 07:26:32 51°13.793 2°55.671 11.942405 3.655265 29.56801 -0.848668
2003-02-13 07:26:36 51°13.798 2°55.666 11.942405 3.655265 29.56801 -0.848668
2003-02-13 07:26:42 51°13.806 2°55.658 11.94541 3.655265 29.56801 -0.848668
2003-02-13 07:26:46 51°13.811 2°55.653 11.947915 3.655265 29.567431 -0.882377
2003-02-13 07:26:51 51°13.818 2°55.647 11.945092 3.655371 29.567798 -0.848668
2003-02-13 07:26:56 51°13.825 2°55.64 11.947505 3.655371 29.567798 -0.848668
2003-02-13 07:27:01 51°13.833 2°55.634 11.947186 3.655371 29.567798 -0.882377
2003-02-13 07:27:07 51°13.842 2°55.627 11.947186 3.655371 29.567798 -0.882377
2003-02-13 07:27:11 51°13.849 2°55.622 11.947277 3.655371 29.568377 -0.882377
2003-02-13 07:27:16 51°13.857 2°55.616 11.946776 3.655371 29.567798 -0.848668
2003-02-13 07:27:22 51°13.868 2°55.608 11.948142 3.655371 29.567798 -0.848668
2003-02-13 07:27:27 51°13.876 2°55.602 11.947323 3.655371 29.567219 -0.882377
2003-02-13 07:27:32 51°13.886 2°55.595 11.947642 3.655371 29.567798 -0.882377
2003-02-13 07:27:37 51°13.895 2°55.588 11.947642 3.655371 29.567798 -0.882377
2003-02-13 07:27:42 51°13.904 2°55.581 11.9496 3.655371 29.567219 -0.848668
2003-02-13 07:27:47 51°13.914 2°55.574 11.947551 3.655371 29.567219 -0.848668
2003-02-13 07:27:52 51°13.925 2°55.566 11.950465 3.655476 29.567587 -0.848668
2003-02-13 07:27:57 51°13.935 2°55.558 11.948734 3.655581 29.568533 -0.882377
2003-02-13 07:28:02 51°13.946 2°55.55 11.931703 3.655371 29.56664 -0.848668
2003-02-13 07:28:07 51°13.957 2°55.543 11.931703 3.655371 29.56664 -0.848668
2003-02-13 07:28:12 51°13.968 2°55.535 11.934026 3.655581 29.567954 -0.882377
2003-02-13 07:28:17 51°13.979 2°55.528 11.93521 3.655581 29.567954 -0.848668
2003-02-13 07:28:22 51°13.991 2°55.521 11.940128 3.655476 29.567007 -0.848668
2003-02-13 07:28:26 51°14 2°55.515 11.94031 3.655476 29.567007 -0.848668
2003-02-13 07:28:31 51°14.012 2°55.507 11.941859 3.655476 29.565849 -0.848668
2003-02-13 07:28:37 51°14.026 2°55.499 11.941859 3.655476 29.565849 -0.848668
2003-02-13 07:28:42 51°14.038 2°55.491 11.94286 3.655476 29.567007 -0.848668
2003-02-13 07:28:46 51°14.047 2°55.484 11.944454 3.655581 29.567375 -0.848668
2003-02-13 07:28:51 51°14.059 2°55.476 11.935574 3.655581 29.566217 -0.848668
2003-02-13 07:28:56 51°14.07 2°55.468 11.943999 3.655581 29.566796 -0.848668
2003-02-13 07:29:01 51°14.082 2°55.46 11.929654 3.655687 29.567742 -0.848668
2003-02-13 07:29:07 51°14.097 2°55.449 11.929654 3.655687 29.567742 -0.848668
2003-02-13 07:29:12 51°14.108 2°55.441 11.923414 3.655687 29.566584 -0.882377
2003-02-13 07:29:17 51°14.12 2°55.432 -999 3.655581 29.565638 -0.848668
2003-02-13 07:29:22 51°14.132 2°55.423 -999 3.655687 29.567163 -0.848668
2003-02-13 07:29:27 51°14.144 2°55.414 11.928469 3.655792 29.566952 -0.814958
2003-02-13 07:29:32 51°14.155 2°55.405 11.93102 3.655687 29.566005 -0.848668
2003-02-13 07:29:37 51°14.166 2°55.395 11.93102 3.655687 29.566005 -0.848668
2003-02-13 07:29:42 51°14.178 2°55.385 11.927103 3.655687 29.566584 -0.848668
2003-02-13 07:29:47 51°14.189 2°55.374 11.933479 3.655687 29.567163 -0.848668
2003-02-13 07:29:51 51°14.197 2°55.366 11.931658 3.655687 29.566005 -0.882377
2003-02-13 07:29:56 51°14.208 2°55.354 11.927741 3.655792 29.566952 -0.848668
2003-02-13 07:30:01 51°14.219 2°55.342 11.929062 3.655792 29.566952 -0.882377
2003-02-13 07:30:06 51°14.229 2°55.329 11.929062 3.655792 29.566952 -0.882377
2003-02-13 07:30:12 51°14.241 2°55.314 11.936348 3.655792 29.566952 -0.882377
2003-02-13 07:30:17 51°14.251 2°55.3 11.927832 3.655792 29.566373 -0.848668
2003-02-13 07:30:22 51°14.26 2°55.286 11.934618 3.655897 29.567319 -0.848668
2003-02-13 07:30:27 51°14.269 2°55.271 11.939673 3.655897 29.566161 -0.848668
2003-02-13 07:30:32 51°14.277 2°55.256 11.935574 3.655897 29.566161 -0.848668
2003-02-13 07:30:36 51°14.284 2°55.244 11.935574 3.655897 29.566161 -0.848668
2003-02-13 07:30:42 51°14.294 2°55.225 11.940174 3.655792 29.566373 -0.848668
2003-02-13 07:30:47 51°14.303 2°55.209 11.942952 3.655792 29.565794 -0.848668
2003-02-13 07:30:51 51°14.309 2°55.197 11.944454 3.655897 29.565582 -0.848668
2003-02-13 07:30:56 51°14.318 2°55.181 11.947551 3.655897 29.565582 -0.848668
2003-02-13 07:31:01 51°14.326 2°55.165 11.947277 3.655897 29.565003 -0.882377
2003-02-13 07:31:06 51°14.334 2°55.149 11.947277 3.655897 29.565003 -0.882377
2003-02-13 07:31:11 51°14.343 2°55.133 11.944682 3.655897 29.565582 -0.848668
2003-02-13 07:31:16 51°14.351 2°55.118 -999 3.655897 29.565003 -0.882377
2003-02-13 07:31:21 51°14.36 2°55.102 -999 3.656003 29.56595 -0.848668
2003-02-13 07:31:26 51°14.368 2°55.087 -999 3.656003 29.56595 -0.848668
2003-02-13 07:31:31 51°14.378 2°55.073 -999 3.656108 29.566317 -0.848668
2003-02-13 07:31:36 51°14.388 2°55.06 -999 3.656108 29.566317 -0.848668
2003-02-13 07:31:41 51°14.398 2°55.047 -999 3.655897 29.564424 -0.848668
2003-02-13 07:31:46 51°14.408 2°55.034 -999 3.656213 29.567842 -0.882377
2003-02-13 07:31:51 51°14.418 2°55.02 -999 3.656108 29.566896 -0.848668
2003-02-13 07:31:56 51°14.428 2°55.007 -999 3.656003 29.56595 -0.882377
2003-02-13 07:32:01 51°14.439 2°54.993 -999 3.656003 29.565371 -0.882377
2003-02-13 07:32:07 51°14.45 2°54.977 -999 3.656003 29.565371 -0.882377
2003-02-13 07:32:11 51°14.458 2°54.967 -999 3.656003 29.565371 -0.848668
2003-02-13 07:32:16 51°14.468 2°54.953 -999 3.656213 29.567263 -0.882377
2003-02-13 07:32:21 51°14.477 2°54.939 -999 3.656003 29.564792 -0.848668
2003-02-13 07:32:26 51°14.487 2°54.925 -999 3.656108 29.566317 -0.848668
2003-02-13 07:32:32 51°14.498 2°54.908 -999 3.656108 29.566317 -0.848668
2003-02-13 07:32:36 51°14.505 2°54.896 -999 3.656108 29.566317 -0.848668
2003-02-13 07:32:41 51°14.514 2°54.881 -999 3.656213 29.567263 -0.848668
2003-02-13 07:32:46 51°14.523 2°54.867 -999 3.656319 29.56821 -0.848668
2003-02-13 07:32:51 51°14.532 2°54.852 -999 3.656213 29.566684 -0.848668
2003-02-13 07:32:56 51°14.542 2°54.838 -999 3.656108 29.56458 -0.848668
2003-02-13 07:33:01 51°14.552 2°54.824 -999 3.656213 29.565527 -0.848668
2003-02-13 07:33:06 51°14.562 2°54.81 -999 3.656213 29.565527 -0.848668
2003-02-13 07:33:11 51°14.574 2°54.795 -999 3.656213 29.565527 -0.848668
2003-02-13 07:33:16 51°14.585 2°54.779 -999 3.656108 29.565159 -0.848668
2003-02-13 07:33:21 51°14.597 2°54.763 -999 3.656319 29.567052 -0.848668
2003-02-13 07:33:26 51°14.609 2°54.747 -999 3.656213 29.565527 -0.848668
2003-02-13 07:33:31 51°14.621 2°54.73 -999 3.656213 29.565527 -0.882377
2003-02-13 07:33:36 51°14.634 2°54.712 -999 3.656213 29.565527 -0.882377
2003-02-13 07:33:41 51°14.646 2°54.694 -999 3.656108 29.565159 -0.882377
2003-02-13 07:33:46 51°14.657 2°54.676 -999 3.648311 29.564038 -0.578993
2003-02-13 07:33:51 51°14.669 2°54.657 -999 3.628922 29.345266 -0.71383
2003-02-13 07:33:56 51°14.68 2°54.637 -999 3.622282 29.216408 3.668392
2003-02-13 07:34:01 51°14.691 2°54.617 -999 3.48363 28.066774 1.612118
2003-02-13 07:34:06 51°14.701 2°54.595 -999 3.48363 28.066774 1.612118
2003-02-13 07:34:11 51°14.709 2°54.572 -999 3.382831 27.79325 -0.74754
2003-02-13 07:34:16 51°14.716 2°54.549 -999 3.374412 28.189189 1.005349
2003-02-13 07:34:21 51°14.722 2°54.524 -999 3.317868 28.705421 -0.848668
2003-02-13 07:34:26 51°14.726 2°54.499 -999 3.2232 28.143935 -0.74754
2003-02-13 07:34:31 51°14.73 2°54.473 -999 3.024651 27.016063 1.241315
2003-02-13 07:34:36 51°14.733 2°54.448 -999 3.024651 27.016063 1.241315
2003-02-13 07:34:41 51°14.735 2°54.422 -999 2.994664 27.653758 3.971777
2003-02-13 07:34:46 51°14.735 2°54.396 -999 2.967096 28.017417 2.522272
2003-02-13 07:34:52 51°14.735 2°54.364 -999 2.962577 28.538651 -0.646411
2003-02-13 07:34:56 51°14.734 2°54.343 -999 2.986157 29.069648 2.589691
2003-02-13 07:35:01 51°14.734 2°54.317 -999 2.945533 28.907852 3.533554
2003-02-13 07:35:06 51°14.736 2°54.291 -999 2.945533 28.907852 3.533554
2003-02-13 07:35:11 51°14.74 2°54.265 -999 2.92712 29.060604 4.409999
2003-02-13 07:35:16 51°14.743 2°54.239 -999 2.908178 29.007358 3.80323
2003-02-13 07:35:20 51°14.746 2°54.218 -999 2.896815 29.059883 4.005486
2003-02-13 07:35:27 51°14.751 2°54.182 -999 2.887976 29.050671 3.735811
2003-02-13 07:35:31 51°14.754 2°54.161 -999 2.881137 29.095228 3.76952
2003-02-13 07:35:36 51°14.759 2°54.135 -999 2.881137 29.095228 3.76952
2003-02-13 07:35:41 51°14.763 2°54.108 -999 2.86609 29.016863 3.938067
2003-02-13 07:35:47 51°14.769 2°54.078 -999 2.85241 28.832079 3.702101
2003-02-13 07:35:51 51°14.773 2°54.057 -999 2.849359 28.801802 3.735811
2003-02-13 07:35:56 51°14.779 2°54.031 -999 2.857041 28.990217 3.836939
2003-02-13 07:36:00 51°14.783 2°54.011 -999 2.858726 29.114203 3.432426
2003-02-13 07:36:06 51°14.79 2°53.98 -999 2.858726 29.114203 3.432426
2003-02-13 07:36:11 51°14.796 2°53.954 -999 2.859569 29.218927 5.690956
2003-02-13 07:36:16 51°14.801 2°53.928 -999 2.857675 29.228188 4.275161
2003-02-13 07:36:21 51°14.806 2°53.903 -999 2.856939 29.261287 3.735811
2003-02-13 07:36:26 51°14.812 2°53.877 -999 2.857465 29.300294 3.938067
2003-02-13 07:36:31 51°14.818 2°53.852 -999 2.857571 29.329999 3.80323
2003-02-13 07:36:36 51°14.824 2°53.826 -999 2.857571 29.329999 3.80323
2003-02-13 07:36:41 51°14.829 2°53.8 -999 2.856835 29.348682 3.735811
2003-02-13 07:36:46 51°14.835 2°53.775 -999 2.856309 29.362049 3.567264
2003-02-13 07:36:51 51°14.84 2°53.749 -999 2.856099 29.385989 4.578546
2003-02-13 07:36:56 51°14.846 2°53.724 -999 2.854941 29.382931 3.533554
2003-02-13 07:37:01 51°14.851 2°53.698 -999 2.853784 29.382199 3.466136
2003-02-13 07:37:06 51°14.856 2°53.672 -999 2.853784 29.382199 3.466136
2003-02-13 07:37:11 51°14.861 2°53.646 -999 2.853047 29.394786 4.241452
2003-02-13 07:37:16 51°14.866 2°53.621 -999 2.850206 29.37881 3.365007
2003-02-13 07:37:20 51°14.87 2°53.6 -999 2.84726 29.367061 3.432426
2003-02-13 07:37:26 51°14.876 2°53.569 -999 2.843999 29.344717 3.80323
2003-02-13 07:37:31 51°14.881 2°53.544 -999 2.842947 29.359167 3.600973
2003-02-13 07:37:36 51°14.886 2°53.518 -999 2.842947 29.359167 3.600973
2003-02-13 07:37:41 51°14.892 2°53.492 -999 2.841579 29.35837 3.533554
2003-02-13 07:37:46 51°14.897 2°53.467 -999 2.840948 29.367526 3.735811
2003-02-13 07:37:51 51°14.903 2°53.441 -999 2.840527 29.368181 3.668392
2003-02-13 07:37:56 51°14.908 2°53.414 -999 2.840422 29.372436 3.80323
2003-02-13 07:38:01 51°14.913 2°53.387 -999 2.840632 29.376394 3.466136
2003-02-13 07:38:06 51°14.919 2°53.36 -999 2.840632 29.376394 3.466136
2003-02-13 07:38:11 51°14.925 2°53.332 -999 2.842 29.389651 3.499845
2003-02-13 07:38:16 51°14.931 2°53.304 -999 2.844105 29.413645 3.23017
2003-02-13 07:38:21 51°14.937 2°53.276 -999 2.847367 29.457876 3.533554
2003-02-13 07:38:26 51°14.943 2°53.248 -999 2.849366 29.480683 3.331298
2003-02-13 07:38:31 51°14.949 2°53.219 -999 2.852628 29.516332 3.432426
2003-02-13 07:38:36 51°14.955 2°53.191 -999 2.852628 29.516332 3.432426
2003-02-13 07:38:42 51°14.963 2°53.157 -999 2.85368 29.531472 3.365007
2003-02-13 07:38:46 51°14.968 2°53.134 -999 2.853891 29.532306 3.904358
2003-02-13 07:38:51 51°14.974 2°53.105 -999 2.854943 29.548234 3.365007
2003-02-13 07:38:56 51°14.98 2°53.076 -999 2.854732 29.549754 3.567264
2003-02-13 07:39:01 51°14.986 2°53.047 -999 2.856732 29.575716 3.19646
2003-02-13 07:39:06 51°14.992 2°53.018 -999 2.856732 29.575716 3.19646
2003-02-13 07:39:11 51°14.998 2°52.989 -999 2.857679 29.591241 3.398717
2003-02-13 07:39:16 51°15.005 2°52.96 -999 2.859257 29.606907 3.398717
2003-02-13 07:39:21 51°15.011 2°52.931 -999 2.861572 29.625477 3.432426
2003-02-13 07:39:26 51°15.017 2°52.902 -999 2.863677 29.636132 3.297589
2003-02-13 07:39:31 51°15.023 2°52.872 -999 2.866623 29.661105 2.994204
2003-02-13 07:39:36 51°15.03 2°52.844 -999 2.866623 29.661105 2.994204
2003-02-13 07:39:41 51°15.036 2°52.814 -999 2.870622 29.699651 3.331298
2003-02-13 07:39:46 51°15.043 2°52.785 -999 2.873463 29.722616 2.960494
2003-02-13 07:39:51 51°15.049 2°52.756 -999 2.874831 29.730342 3.466136
2003-02-13 07:39:56 51°15.055 2°52.727 -999 2.875778 29.740357 3.095332
2003-02-13 07:40:01 51°15.061 2°52.698 -999 2.875567 29.741109 2.926785
2003-02-13 07:40:06 51°15.067 2°52.668 -999 2.875567 29.741109 2.926785
2003-02-13 07:40:11 51°15.073 2°52.639 -999 2.875357 29.738708 2.926785
2003-02-13 07:40:16 51°15.08 2°52.61 -999 2.874305 29.72828 3.567264
2003-02-13 07:40:21 51°15.086 2°52.58 -999 2.871779 29.704195 3.365007
2003-02-13 07:40:26 51°15.092 2°52.551 -999 2.871463 29.704531 3.466136
2003-02-13 07:40:31 51°15.099 2°52.522 -999 2.871043 29.707605 2.724529
2003-02-13 07:40:36 51°15.105 2°52.493 -999 2.871043 29.707605 2.724529
2003-02-13 07:40:41 51°15.111 2°52.463 -999 2.869675 29.699082 2.6234
2003-02-13 07:40:46 51°15.117 2°52.434 -999 2.870306 29.711018 2.522272
2003-02-13 07:40:52 51°15.125 2°52.399 -999 2.870096 29.714134 2.859366
2003-02-13 07:40:56 51°15.131 2°52.375 -999 2.870096 29.715711 2.589691
2003-02-13 07:41:01 51°15.137 2°52.346 -999 2.870622 29.723297 3.533554
2003-02-13 07:41:07 51°15.145 2°52.311 -999 2.870622 29.723297 3.533554
2003-02-13 07:41:11 51°15.15 2°52.287 -999 2.870517 29.71894 2.893076
2003-02-13 07:41:16 51°15.156 2°52.258 -999 2.870832 29.726489 3.297589
2003-02-13 07:41:21 51°15.163 2°52.229 -999 2.871253 29.735242 2.6234
2003-02-13 07:41:26 51°15.17 2°52.199 -999 2.868412 29.712256 2.589691
2003-02-13 07:41:31 51°15.176 2°52.17 -999 2.872832 29.766705 2.65711
2003-02-13 07:41:36 51°15.182 2°52.14 -999 2.872832 29.766705 2.65711
2003-02-13 07:41:41 51°15.189 2°52.111 -999 2.872621 29.766671 2.65711
2003-02-13 07:41:46 51°15.195 2°52.082 -999 2.872306 29.767016 3.297589
2003-02-13 07:41:51 51°15.202 2°52.052 -999 2.871569 29.76334 2.555982
2003-02-13 07:41:56 51°15.209 2°52.023 -999 2.871043 29.759697 2.791947
2003-02-13 07:42:01 51°15.215 2°51.993 -999 2.869886 29.750417 3.19646
2003-02-13 07:42:06 51°15.222 2°51.964 -999 2.869886 29.750417 3.19646
2003-02-13 07:42:11 51°15.228 2°51.935 -999 2.86978 29.751586 2.555982
2003-02-13 07:42:17 51°15.236 2°51.899 -999 2.869465 29.755884 2.488563
2003-02-13 07:42:22 51°15.242 2°51.87 -999 2.868518 29.750589 2.454853
2003-02-13 07:42:26 51°15.246 2°51.846 -999 2.867045 29.738482 2.65711
2003-02-13 07:42:31 51°15.251 2°51.816 -999 2.866203 29.730434 2.522272
2003-02-13 07:42:36 51°15.255 2°51.785 -999 2.866203 29.730434 2.522272
2003-02-13 07:42:41 51°15.26 2°51.755 -999 2.866308 29.737965 2.488563
2003-02-13 07:42:46 51°15.263 2°51.724 -999 2.865045 29.728261 2.421144
2003-02-13 07:42:51 51°15.265 2°51.694 -999 2.865887 29.7466 2.252597
2003-02-13 07:42:56 51°15.267 2°51.663 -999 2.863888 29.727671 2.353725
2003-02-13 07:43:01 51°15.269 2°51.632 -999 2.863783 29.728049 2.252597
2003-02-13 07:43:06 51°15.27 2°51.601 -999 2.863783 29.728049 2.252597
2003-02-13 07:43:11 51°15.271 2°51.57 -999 2.86252 29.716757 2.353725
2003-02-13 07:43:16 51°15.272 2°51.539 -999 2.863362 29.731144 2.488563
2003-02-13 07:43:21 51°15.271 2°51.508 -999 2.861257 29.711793 2.555982
2003-02-13 07:43:26 51°15.27 2°51.477 -999 2.861678 29.722946 2.724529
2003-02-13 07:43:31 51°15.268 2°51.446 -999 2.86031 29.711234 2.454853
2003-02-13 07:43:36 51°15.266 2°51.415 -999 2.86031 29.711234 2.454853
2003-02-13 07:43:42 51°15.264 2°51.379 -999 2.859258 29.701555 2.387435
2003-02-13 07:43:46 51°15.262 2°51.354 -999 2.858311 29.695453 2.252597
2003-02-13 07:43:51 51°15.259 2°51.323 -999 2.855891 29.673262 2.421144
2003-02-13 07:43:56 51°15.257 2°51.292 -999 2.855786 29.679176 2.65711
2003-02-13 07:44:02 51°15.253 2°51.256 -999 2.85526 29.678685 2.185178
2003-02-13 07:44:06 51°15.252 2°51.231 -999 2.85526 29.678685 2.185178
2003-02-13 07:44:11 51°15.249 2°51.201 -999 2.852103 29.648829 2.218888
2003-02-13 07:44:16 51°15.246 2°51.17 -999 2.853261 29.661307 2.185178
2003-02-13 07:44:21 51°15.242 2°51.14 -999 2.852524 29.652072 2.353725
2003-02-13 07:44:26 51°15.239 2°51.109 -999 2.852945 29.658479 2.151469
2003-02-13 07:44:32 51°15.235 2°51.073 -999 2.853682 29.668505 2.286306
2003-02-13 07:44:36 51°15.233 2°51.048 -999 2.853682 29.668505 2.286306
2003-02-13 07:44:40 51°15.23 2°51.024 -999 2.851367 29.643549 2.454853
2003-02-13 07:44:46 51°15.226 2°50.987 -999 2.852524 29.657609 2.387435
2003-02-13 07:44:51 51°15.223 2°50.956 -999 2.853155 29.66643 1.780665
2003-02-13 07:44:56 51°15.22 2°50.926 -999 2.85284 29.663602 2.117759
2003-02-13 07:45:01 51°15.217 2°50.895 -999 2.853682 29.674837 2.286306
2003-02-13 07:45:06 51°15.214 2°50.865 -999 2.853682 29.674837 2.286306
2003-02-13 07:45:11 51°15.211 2°50.834 -999 2.854734 29.688488 2.252597
2003-02-13 07:45:16 51°15.207 2°50.804 -999 2.854313 29.684453 2.589691
2003-02-13 07:45:20 51°15.205 2°50.779 -999 2.855786 29.702933 1.949212
2003-02-13 07:45:26 51°15.2 2°50.743 -999 2.856418 29.710967 2.218888
2003-02-13 07:45:31 51°15.197 2°50.712 -999 2.856733 29.716967 2.320016
2003-02-13 07:45:36 51°15.194 2°50.682 -999 2.856733 29.716967 2.320016
2003-02-13 07:45:41 51°15.191 2°50.651 -999 2.857575 29.726624 2.185178
2003-02-13 07:45:47 51°15.187 2°50.615 -999 2.856523 29.714553 2.286306
2003-02-13 07:45:51 51°15.184 2°50.59 -999 2.859364 29.747146 2.185178
2003-02-13 07:45:56 51°15.181 2°50.56 -999 2.857786 29.730625 2.08405
2003-02-13 07:46:01 51°15.178 2°50.529 -999 2.857996 29.736214 2.387435
2003-02-13 07:46:07 51°15.174 2°50.493 -999 2.857996 29.736214 2.387435
2003-02-13 07:46:11 51°15.171 2°50.469 -999 2.85968 29.755532 2.08405
2003-02-13 07:46:16 51°15.168 2°50.438 -999 2.860522 29.76837 2.016631
2003-02-13 07:46:21 51°15.165 2°50.407 -999 2.859995 29.763126 2.589691
2003-02-13 07:46:26 51°15.162 2°50.377 -999 2.858733 29.749429 2.488563
2003-02-13 07:46:31 51°15.158 2°50.346 -999 2.860311 29.768339 2.151469
2003-02-13 07:46:36 51°15.155 2°50.316 -999 2.860311 29.768339 2.151469
2003-02-13 07:46:41 51°15.152 2°50.285 -999 2.860311 29.770723 2.151469
2003-02-13 07:46:46 51°15.148 2°50.255 -999 2.860522 29.777114 1.982922
2003-02-13 07:46:51 51°15.145 2°50.224 -999 2.860522 29.777909 1.881794
2003-02-13 07:46:56 51°15.142 2°50.194 -999 2.858101 29.753304 2.117759
2003-02-13 07:47:01 51°15.139 2°50.163 -999 2.858101 29.753304 2.016631
2003-02-13 07:47:06 51°15.135 2°50.133 -999 2.858101 29.753304 2.016631
2003-02-13 07:47:11 51°15.132 2°50.103 -999 2.860206 29.780647 2.117759
2003-02-13 07:47:16 51°15.129 2°50.072 -999 2.859785 29.776609 1.915503
2003-02-13 07:47:22 51°15.126 2°50.035 -999 2.860522 29.784271 1.814375
2003-02-13 07:47:26 51°15.123 2°50.011 -999 2.859996 29.77823 1.881794
2003-02-13 07:47:31 51°15.12 2°49.98 -999 2.859469 29.776961 1.982922
2003-02-13 07:47:36 51°15.117 2°49.95 -999 2.859469 29.776961 1.982922
2003-02-13 07:47:41 51°15.114 2°49.92 -999 2.861153 29.798684 2.050341
2003-02-13 07:47:47 51°15.111 2°49.883 -999 2.860943 29.799452 2.117759
2003-02-13 07:47:51 51°15.108 2°49.859 -999 2.860206 29.791787 1.746956
2003-02-13 07:47:56 51°15.105 2°49.828 -999 2.862311 29.815962 2.016631
2003-02-13 07:48:01 51°15.101 2°49.798 -999 2.863153 29.827227 1.915503
2003-02-13 07:48:06 51°15.099 2°49.767 -999 2.863153 29.827227 1.915503
2003-02-13 07:48:11 51°15.095 2°49.737 -999 2.86189 29.813517 1.814375
2003-02-13 07:48:16 51°15.093 2°49.706 -999 2.863889 29.838082 1.881794
2003-02-13 07:48:22 51°15.089 2°49.67 -999 2.866204 29.86229 2.117759
2003-02-13 07:48:26 51°15.086 2°49.645 -999 2.865994 29.86067 1.881794
2003-02-13 07:48:31 51°15.083 2°49.615 -999 2.866204 29.859099 2.050341
2003-02-13 07:48:36 51°15.08 2°49.584 -999 2.866204 29.859099 2.050341
2003-02-13 07:48:41 51°15.077 2°49.553 -999 2.867256 29.867199 2.151469
2003-02-13 07:48:46 51°15.074 2°49.523 -999 2.869992 29.897835 1.713247
2003-02-13 07:48:51 51°15.071 2°49.492 -999 2.869992 29.898634 1.679537
2003-02-13 07:48:56 51°15.068 2°49.462 -999 2.87115 29.913533 1.814375
2003-02-13 07:49:02 51°15.065 2°49.425 -999 2.871992 29.924006 1.645828
2003-02-13 07:49:06 51°15.062 2°49.401 -999 2.871992 29.924006 1.645828
2003-02-13 07:49:11 51°15.059 2°49.37 -999 2.872413 29.929643 2.016631
2003-02-13 07:49:16 51°15.055 2°49.34 -999 2.871676 29.921178 1.814375
2003-02-13 07:49:21 51°15.052 2°49.309 -999 2.872413 29.932842 1.645828
2003-02-13 07:49:27 51°15.048 2°49.273 -999 2.874833 29.963065 1.713247
2003-02-13 07:49:31 51°15.046 2°49.248 -999 2.874096 29.960201 1.679537
2003-02-13 07:49:36 51°15.043 2°49.218 -999 2.874096 29.960201 1.679537
2003-02-13 07:49:42 51°15.039 2°49.181 -999 2.873255 29.953724 1.679537
2003-02-13 07:49:46 51°15.037 2°49.157 -999 2.875465 29.977533 1.780665
2003-02-13 07:49:51 51°15.033 2°49.126 -999 2.877043 29.998091 1.578409
2003-02-13 07:49:56 51°15.03 2°49.096 -999 2.876412 29.989226 1.645828
2003-02-13 07:50:01 51°15.027 2°49.065 -999 2.87799 30.004973 1.612118
2003-02-13 07:50:06 51°15.024 2°49.035 -999 2.87799 30.004973 1.612118
2003-02-13 07:50:11 51°15.021 2°49.004 -999 2.879569 30.022324 1.780665
2003-02-13 07:50:16 51°15.018 2°48.973 -999 2.881463 30.041701 2.151469
2003-02-13 07:50:21 51°15.015 2°48.942 -999 2.884093 30.067942 2.218888
2003-02-13 07:50:26 51°15.012 2°48.912 -999 2.88483 30.074003 2.016631
2003-02-13 07:50:31 51°15.009 2°48.881 -999 2.886724 30.094984 1.713247
2003-02-13 07:50:36 51°15.006 2°48.851 -999 2.886724 30.094984 1.713247
2003-02-13 07:50:41 51°15.003 2°48.82 -999 2.88683 30.096194 2.555982
2003-02-13 07:50:46 51°15 2°48.79 -999 2.886935 30.095796 1.612118
2003-02-13 07:50:51 51°14.997 2°48.759 -999 2.887987 30.107899 1.713247
2003-02-13 07:50:56 51°14.993 2°48.729 -999 2.888408 30.111935 1.713247
2003-02-13 07:51:01 51°14.991 2°48.699 -999 2.888198 30.10871 1.477281
2003-02-13 07:51:06 51°14.987 2°48.668 -999 2.888198 30.10871 1.477281
2003-02-13 07:51:11 51°14.984 2°48.638 -999 2.887566 30.103862 1.713247
2003-02-13 07:51:16 51°14.981 2°48.608 -999 2.885882 30.084497 1.679537
2003-02-13 07:51:22 51°14.977 2°48.571 -999 2.887882 30.106688 1.679537
2003-02-13 07:51:26 51°14.975 2°48.547 -999 2.886724 30.095788 2.151469
2003-02-13 07:51:31 51°14.972 2°48.517 -999 2.88483 30.074003 1.578409
2003-02-13 07:51:36 51°14.969 2°48.486 -999 2.88483 30.074003 1.578409
2003-02-13 07:51:41 51°14.965 2°48.456 -999 2.886619 30.092165 1.443571
2003-02-13 07:51:46 51°14.963 2°48.426 -999 2.887356 30.099833 1.477281
2003-02-13 07:51:51 51°14.959 2°48.396 -999 2.886619 30.091361 1.578409
2003-02-13 07:51:56 51°14.956 2°48.365 -999 2.888408 30.115154 1.51099
2003-02-13 07:52:01 51°14.953 2°48.335 -999 2.888513 30.117169 1.376153
2003-02-13 07:52:07 51°14.95 2°48.298 -999 2.888513 30.117169 1.376153
2003-02-13 07:52:11 51°14.947 2°48.274 -999 2.887777 30.108696 1.5447
2003-02-13 07:52:16 51°14.944 2°48.244 -999 2.890618 30.144602 1.5447
2003-02-13 07:52:21 51°14.941 2°48.214 -999 2.889776 30.134111 1.308734
2003-02-13 07:52:26 51°14.939 2°48.183 -999 2.889039 30.125637 1.645828
2003-02-13 07:52:31 51°14.935 2°48.153 -999 2.890092 30.136132 1.477281
2003-02-13 07:52:36 51°14.932 2°48.123 -999 2.890092 30.136132 1.477281
2003-02-13 07:52:42 51°14.929 2°48.086 -999 2.887882 30.109906 1.645828
2003-02-13 07:52:47 51°14.926 2°48.056 -999 2.889671 30.12968 1.5447
2003-02-13 07:52:51 51°14.923 2°48.032 -999 2.891565 30.154693 1.612118
2003-02-13 07:52:56 51°14.921 2°48.001 -999 2.888724 30.122005 1.612118
2003-02-13 07:53:01 51°14.917 2°47.971 -999 2.891039 30.150251 1.612118
2003-02-13 07:53:07 51°14.914 2°47.934 -999 2.891039 30.150251 1.612118
2003-02-13 07:53:11 51°14.911 2°47.91 -999 2.889987 30.139754 1.51099
2003-02-13 07:53:16 51°14.908 2°47.879 -999 2.887777 30.115134 1.51099
2003-02-13 07:53:21 51°14.905 2°47.849 -999 2.886935 30.106253 1.443571
2003-02-13 07:53:26 51°14.902 2°47.818 -999 2.888829 30.131268 1.477281
2003-02-13 07:53:31 51°14.899 2°47.788 -999 2.889355 30.138934 1.780665
2003-02-13 07:53:36 51°14.897 2°47.757 -999 2.889355 30.138934 1.780665
2003-02-13 07:53:41 51°14.893 2°47.727 -999 2.888829 30.13449 1.612118
2003-02-13 07:53:47 51°14.89 2°47.691 -999 2.889671 30.14579 1.5447
2003-02-13 07:53:51 51°14.887 2°47.666 -999 2.888619 30.134485 1.443571
2003-02-13 07:53:56 51°14.884 2°47.636 -999 2.88925 30.139334 1.207606
2003-02-13 07:54:02 51°14.881 2°47.599 -999 2.89146 30.163155 1.106477
2003-02-13 07:54:06 51°14.878 2°47.575 -999 2.89146 30.163155 1.106477
2003-02-13 07:54:11 51°14.876 2°47.544 -999 2.892512 30.169622 1.241315
2003-02-13 07:54:16 51°14.873 2°47.514 -999 2.894933 30.193441 1.443571
2003-02-13 07:54:21 51°14.87 2°47.484 -999 2.896195 30.20313 1.308734
2003-02-13 07:54:26 51°14.868 2°47.453 -999 2.896406 30.199903 1.376153
2003-02-13 07:54:31 51°14.865 2°47.423 -999 2.8983 30.218467 1.173896
2003-02-13 07:54:36 51°14.862 2°47.392 -999 2.8983 30.218467 1.173896
2003-02-13 07:54:41 51°14.859 2°47.362 -999 2.899458 30.226133 1.275024
2003-02-13 07:54:46 51°14.856 2°47.332 -999 2.901878 30.253167 1.342443
2003-02-13 07:54:51 51°14.853 2°47.301 -999 2.902088 30.251549 1.679537
2003-02-13 07:54:56 51°14.85 2°47.271 -999 2.90272 30.257196 1.308734
2003-02-13 07:55:01 51°14.847 2°47.241 -999 2.904298 30.273736 1.275024
2003-02-13 07:55:06 51°14.844 2°47.21 -999 2.904298 30.273736 1.275024
2003-02-13 07:55:11 51°14.841 2°47.18 -999 2.903877 30.26647 1.207606
2003-02-13 07:55:16 51°14.838 2°47.15 -999 2.905246 30.282205 1.140187
2003-02-13 07:55:21 51°14.835 2°47.12 -999 2.905666 30.286238 1.308734
2003-02-13 07:55:26 51°14.831 2°47.089 -999 2.905982 30.287444 1.409862
2003-02-13 07:55:31 51°14.829 2°47.059 -999 2.906193 30.289056 1.207606
2003-02-13 07:55:36 51°14.825 2°47.029 -999 2.906193 30.289056 1.207606
2003-02-13 07:55:42 51°14.822 2°46.993 -999 2.907455 30.302771 1.51099
2003-02-13 07:55:46 51°14.819 2°46.969 -999 2.906508 30.292687 1.173896
2003-02-13 07:55:51 51°14.816 2°46.939 -999 2.906929 30.295911 1.308734
2003-02-13 07:55:56 51°14.813 2°46.909 -999 2.90714 30.295097 1.241315
2003-02-13 07:56:01 51°14.81 2°46.879 -999 2.907561 30.299938 1.342443
2003-02-13 07:56:07 51°14.806 2°46.842 -999 2.907561 30.299938 1.342443
2003-02-13 07:56:11 51°14.804 2°46.818 -999 2.908297 30.304366 1.241315
2003-02-13 07:56:16 51°14.8 2°46.788 -999 2.909771 30.319689 1.275024
2003-02-13 07:56:21 51°14.798 2°46.757 -999 2.909876 30.32009 1.275024
2003-02-13 07:56:27 51°14.794 2°46.721 -999 2.912296 30.343876 1.376153
2003-02-13 07:56:31 51°14.792 2°46.697 -999 2.912086 30.339027 1.173896
2003-02-13 07:56:36 51°14.789 2°46.667 -999 2.912086 30.339027 1.173896
2003-02-13 07:56:42 51°14.785 2°46.631 -999 2.913243 30.351528 1.140187
2003-02-13 07:56:46 51°14.783 2°46.607 -999 2.914191 30.361608 1.477281
2003-02-13 07:56:51 51°14.779 2°46.577 -999 2.913559 30.353538 1.275024
2003-02-13 07:56:56 51°14.776 2°46.547 -999 2.914191 30.361608 1.140187
2003-02-13 07:57:01 51°14.773 2°46.517 -999 2.914191 30.363228 1.072768
2003-02-13 07:57:06 51°14.77 2°46.487 -999 2.914191 30.363228 1.072768
2003-02-13 07:57:11 51°14.767 2°46.457 -999 2.914085 30.363638 1.241315
2003-02-13 07:57:16 51°14.764 2°46.427 -999 2.914506 30.370099 1.207606
2003-02-13 07:57:21 51°14.761 2°46.397 -999 2.913875 30.365268 1.241315
2003-02-13 07:57:26 51°14.758 2°46.367 -999 2.912296 30.351163 1.106477
2003-02-13 07:57:31 51°14.754 2°46.337 -999 2.913664 30.36933 1.106477
2003-02-13 07:57:36 51°14.752 2°46.307 -999 2.913664 30.36933 1.106477
2003-02-13 07:57:40 51°14.75 2°46.283 -999 2.913559 30.36893 1.477281
2003-02-13 07:57:46 51°14.746 2°46.247 -999 2.915454 30.387477 1.173896
2003-02-13 07:57:51 51°14.743 2°46.217 -999 2.915243 30.381002 1.645828
2003-02-13 07:57:56 51°14.74 2°46.187 -999 2.917453 30.406422 1.207606
2003-02-13 07:58:00 51°14.738 2°46.163 -999 2.916927 30.397125 1.342443
2003-02-13 07:58:06 51°14.735 2°46.126 -999 2.916927 30.397125 1.342443
2003-02-13 07:58:11 51°14.731 2°46.096 -999 2.917663 30.401542 1.241315
2003-02-13 07:58:16 51°14.728 2°46.066 -999 2.919453 30.418871 1.106477
2003-02-13 07:58:22 51°14.725 2°46.03 -999 2.9204 30.42814 1.275024
2003-02-13 07:58:26 51°14.722 2°46.006 -999 2.921768 30.44225 1.106477
2003-02-13 07:58:31 51°14.72 2°45.976 -999 2.922399 30.446263 1.106477
2003-02-13 07:58:36 51°14.716 2°45.946 -999 2.922399 30.446263 1.106477
2003-02-13 07:58:41 51°14.714 2°45.915 -999 2.922083 30.437763 1.140187
2003-02-13 07:58:46 51°14.71 2°45.885 -999 2.924188 30.460339 1.140187
2003-02-13 07:58:51 51°14.708 2°45.855 -999 2.92503 30.469206 1.140187
2003-02-13 07:58:56 51°14.704 2°45.825 -999 2.926398 30.484937 1.207606
2003-02-13 07:59:01 51°14.701 2°45.795 -999 2.924399 30.460322 1.140187
2003-02-13 07:59:07 51°14.697 2°45.759 -999 2.924399 30.460322 1.140187
2003-02-13 07:59:11 51°14.695 2°45.734 -999 2.926398 30.483312 1.241315
2003-02-13 07:59:16 51°14.692 2°45.704 -999 2.926188 30.484142 1.409862
2003-02-13 07:59:21 51°14.689 2°45.674 -999 2.924504 30.467218 1.072768
2003-02-13 07:59:26 51°14.687 2°45.643 -999 2.924504 30.47128 1.241315
2003-02-13 07:59:31 51°14.684 2°45.613 -999 2.923767 30.465245 1.072768
2003-02-13 07:59:36 51°14.681 2°45.582 -999 2.923767 30.465245 1.072768
2003-02-13 07:59:41 51°14.678 2°45.552 -999 2.923241 30.461631 1.578409
2003-02-13 07:59:47 51°14.675 2°45.515 -999 2.922399 30.455197 1.241315
2003-02-13 07:59:52 51°14.671 2°45.485 -999 2.921663 30.448348 1.612118
2003-02-13 07:59:56 51°14.67 2°45.46 -999 2.921557 30.448762 1.5447
2003-02-13 08:00:01 51°14.666 2°45.43 -999 2.921136 30.447169 1.072768
2003-02-13 08:00:06 51°14.664 2°45.399 -999 2.921136 30.447169 1.072768
2003-02-13 08:00:12 51°14.66 2°45.362 -999 2.921557 30.451199 1.645828
2003-02-13 08:00:16 51°14.657 2°45.338 -999 2.923136 30.470173 1.173896
2003-02-13 08:00:21 51°14.654 2°45.307 -999 2.923136 30.471799 1.072768
2003-02-13 08:00:27 51°14.65 2°45.27 -999 2.924609 30.483058 1.140187
2003-02-13 08:00:31 51°14.647 2°45.246 -999 2.925767 30.495563 1.443571
2003-02-13 08:00:36 51°14.645 2°45.216 -999 2.925767 30.495563 1.443571
2003-02-13 08:00:41 51°14.642 2°45.185 -999 2.92724 30.507632 1.5447
2003-02-13 08:00:47 51°14.638 2°45.148 -999 2.927135 30.504794 1.308734
2003-02-13 08:00:51 51°14.635 2°45.124 -999 2.928609 30.519301 1.106477
2003-02-13 08:00:56 51°14.633 2°45.093 -999 2.928924 30.521305 1.308734
2003-02-13 08:01:00 51°14.63 2°45.069 -999 2.931134 30.546727 1.072768
2003-02-13 08:01:06 51°14.626 2°45.033 -999 2.931134 30.546727 1.072768
2003-02-13 08:01:11 51°14.623 2°45.002 -999 2.930503 30.537021 1.106477
2003-02-13 08:01:16 51°14.62 2°44.972 -999 2.933239 30.565237 1.746956
2003-02-13 08:01:20 51°14.617 2°44.947 -999 2.933976 30.575341 1.106477
2003-02-13 08:01:27 51°14.613 2°44.904 -999 2.935344 30.587003 1.173896
2003-02-13 08:01:31 51°14.61 2°44.88 -999 2.934502 30.575688 1.173896
2003-02-13 08:01:36 51°14.607 2°44.85 -999 2.934502 30.575688 1.173896
2003-02-13 08:01:41 51°14.604 2°44.819 -999 2.937133 30.604321 1.140187
2003-02-13 08:01:46 51°14.601 2°44.789 -999 2.937554 30.606716 1.275024
2003-02-13 08:01:51 51°14.598 2°44.758 -999 2.93787 30.6079 0.97164
2003-02-13 08:01:56 51°14.595 2°44.728 -999 2.940185 30.632898 1.173896
2003-02-13 08:02:02 51°14.591 2°44.691 -999 2.940501 30.634897 1.140187
2003-02-13 08:02:06 51°14.589 2°44.667 -999 2.940501 30.634897 1.140187
2003-02-13 08:02:11 51°14.586 2°44.637 -999 2.941869 30.649817 1.207606
2003-02-13 08:02:16 51°14.583 2°44.607 -999 2.942395 30.653419 1.207606
2003-02-13 08:02:21 51°14.579 2°44.576 -999 2.943237 30.659835 1.173896
2003-02-13 08:02:26 51°14.576 2°44.546 -999 2.945342 30.680775 1.072768
2003-02-13 08:02:31 51°14.572 2°44.516 -999 2.945447 30.678716 1.140187
2003-02-13 08:02:36 51°14.569 2°44.486 -999 2.945447 30.678716 1.140187
2003-02-13 08:02:41 51°14.565 2°44.456 -999 2.947552 30.698834 1.106477
2003-02-13 08:02:46 51°14.562 2°44.425 -999 2.950499 30.726176 1.241315
2003-02-13 08:02:51 51°14.558 2°44.395 -999 2.952183 30.738991 1.173896
2003-02-13 08:02:56 51°14.555 2°44.364 -999 2.954604 30.76109 1.072768
2003-02-13 08:03:01 51°14.551 2°44.334 -999 2.956077 30.769021 1.140187
2003-02-13 08:03:06 51°14.547 2°44.303 -999 2.956077 30.769021 1.140187
2003-02-13 08:03:11 51°14.544 2°44.272 -999 2.95534 30.755644 1.039059
2003-02-13 08:03:16 51°14.54 2°44.242 -999 2.958498 30.787015 1.780665
2003-02-13 08:03:21 51°14.537 2°44.211 -999 2.960182 30.80227 1.275024
2003-02-13 08:03:26 51°14.534 2°44.18 -999 2.958918 30.785302 1.072768
2003-02-13 08:03:31 51°14.53 2°44.15 -999 2.959971 30.794937 1.241315
2003-02-13 08:03:36 51°14.527 2°44.119 -999 2.959971 30.794937 1.241315
2003-02-13 08:03:41 51°14.523 2°44.089 -999 2.96176 30.813855 1.780665
2003-02-13 08:03:46 51°14.52 2°44.058 -999 2.96176 30.810578 1.140187
2003-02-13 08:03:51 51°14.516 2°44.028 -999 2.961865 30.810149 1.207606
2003-02-13 08:03:56 51°14.512 2°43.998 -999 2.962707 30.818182 1.039059
2003-02-13 08:04:01 51°14.508 2°43.967 -999 2.962918 30.82142 1.039059
2003-02-13 08:04:07 51°14.504 2°43.931 -999 2.962918 30.82142 1.039059
2003-02-13 08:04:11 51°14.501 2°43.906 -999 2.963128 30.824657 1.308734
2003-02-13 08:04:16 51°14.498 2°43.876 -999 2.964391 30.839986 1.308734
2003-02-13 08:04:21 51°14.494 2°43.845 -999 2.965128 30.849271 1.072768
2003-02-13 08:04:26 51°14.49 2°43.815 -999 2.965023 30.843142 1.039059
2003-02-13 08:04:31 51°14.487 2°43.785 -999 2.966391 30.853939 1.072768
2003-02-13 08:04:36 51°14.483 2°43.755 -999 2.966391 30.853939 1.072768
2003-02-13 08:04:41 51°14.479 2°43.724 -999 2.969022 30.879241 1.106477
2003-02-13 08:04:46 51°14.475 2°43.694 -999 2.971654 30.904539 1.207606
2003-02-13 08:04:51 51°14.472 2°43.664 -999 2.971548 30.896763 1.005349
2003-02-13 08:04:56 51°14.468 2°43.634 -999 2.972811 30.909625 1.207606
2003-02-13 08:05:01 51°14.464 2°43.604 -999 2.975021 30.933364 1.241315
2003-02-13 08:05:06 51°14.46 2°43.574 -999 2.975021 30.933364 1.241315
2003-02-13 08:05:11 51°14.457 2°43.544 -999 2.9746 30.927708 1.005349
2003-02-13 08:05:16 51°14.453 2°43.514 -999 2.97439 30.923648 1.275024
2003-02-13 08:05:21 51°14.45 2°43.484 -999 2.974706 30.929738 1.106477
2003-02-13 08:05:27 51°14.445 2°43.447 -999 2.975127 30.932108 1.072768
2003-02-13 08:05:31 51°14.443 2°43.423 -999 2.974495 30.926499 1.005349
2003-02-13 08:05:36 51°14.438 2°43.392 -999 2.974495 30.926499 1.005349
2003-02-13 08:05:41 51°14.436 2°43.362 -999 2.973653 30.917651 1.140187
2003-02-13 08:05:46 51°14.431 2°43.332 -999 2.975548 30.937764 1.140187
2003-02-13 08:05:52 51°14.428 2°43.296 -999 2.974811 30.931768 0.97164
2003-02-13 08:05:56 51°14.424 2°43.272 -999 2.974916 30.935442 1.207606
2003-02-13 08:06:01 51°14.421 2°43.241 -999 2.974285 30.929832 1.106477
2003-02-13 08:06:06 51°14.417 2°43.211 -999 2.974285 30.929832 1.106477
2003-02-13 08:06:11 51°14.413 2°43.181 -999 2.976074 30.949562 1.275024
2003-02-13 08:06:16 51°14.409 2°43.151 -999 2.975548 30.943517 1.106477
2003-02-13 08:06:21 51°14.406 2°43.122 -999 2.974601 30.932637 1.039059
2003-02-13 08:06:26 51°14.401 2°43.092 -999 2.975758 30.941825 1.207606
2003-02-13 08:06:31 51°14.398 2°43.061 -999 2.976916 30.949368 0.93793
2003-02-13 08:06:36 51°14.394 2°43.031 -999 2.976916 30.949368 0.93793
2003-02-13 08:06:41 51°14.391 2°43.001 -999 2.97839 30.964644 1.039059
2003-02-13 08:06:46 51°14.387 2°42.971 -999 2.980389 30.981028 1.039059
2003-02-13 08:06:51 51°14.384 2°42.941 -999 2.981863 30.993834 1.207606
2003-02-13 08:06:56 51°14.381 2°42.91 -999 2.981968 30.993397 1.005349
2003-02-13 08:07:02 51°14.376 2°42.874 -999 2.9826 30.998179 1.039059
2003-02-13 08:07:06 51°14.374 2°42.85 -999 2.9826 30.998179 1.039059
2003-02-13 08:07:11 51°14.37 2°42.819 -999 2.984178 31.014658 1.039059
2003-02-13 08:07:16 51°14.367 2°42.789 -999 2.984599 31.017845 0.97164
2003-02-13 08:07:21 51°14.363 2°42.759 -999 2.985652 31.026635 1.173896
2003-02-13 08:07:26 51°14.36 2°42.729 -999 2.982705 30.992807 1.106477
2003-02-13 08:07:31 51°14.356 2°42.699 -999 2.983862 31.006096 1.241315
2003-02-13 08:07:36 51°14.353 2°42.669 -999 2.983862 31.006096 1.241315
2003-02-13 08:07:41 51°14.349 2°42.639 -999 2.98481 31.016146 1.207606
2003-02-13 08:07:46 51°14.345 2°42.609 -999 2.985441 31.024218 1.578409
2003-02-13 08:07:51 51°14.342 2°42.579 -999 2.985652 31.027458 1.612118
2003-02-13 08:07:56 51°14.338 2°42.549 -999 2.983547 31.003294 1.005349
2003-02-13 08:08:01 51°14.335 2°42.519 -999 2.986494 31.037124 0.870512
2003-02-13 08:08:07 51°14.331 2°42.482 -999 2.986494 31.037124 0.870512
2003-02-13 08:08:11 51°14.328 2°42.458 -999 2.98481 31.017792 1.106477
2003-02-13 08:08:16 51°14.324 2°42.428 -999 2.985231 31.020979 1.005349
2003-02-13 08:08:21 51°14.321 2°42.398 -999 2.98681 31.035808 0.93793
2003-02-13 08:08:26 51°14.317 2°42.368 -999 2.988915 31.059148 1.005349
2003-02-13 08:08:31 51°14.313 2°42.338 -999 2.989651 31.06431 1.106477
2003-02-13 08:08:36 51°14.309 2°42.308 -999 2.989651 31.06431 1.106477
2003-02-13 08:08:41 51°14.304 2°42.278 -999 2.987441 31.039763 1.308734
2003-02-13 08:08:46 51°14.3 2°42.248 -999 2.98902 31.057061 1.106477
2003-02-13 08:08:51 51°14.295 2°42.218 -999 2.990178 31.071999 1.005349
2003-02-13 08:08:56 51°14.291 2°42.188 -999 2.989546 31.062277 1.072768
2003-02-13 08:09:01 51°14.286 2°42.158 -999 2.989546 31.062277 1.241315
2003-02-13 08:09:07 51°14.281 2°42.122 -999 2.989546 31.062277 1.241315
2003-02-13 08:09:11 51°14.277 2°42.098 -999 2.988704 31.050965 0.97164
2003-02-13 08:09:16 51°14.272 2°42.068 -999 2.990388 31.071943 1.005349
2003-02-13 08:09:21 51°14.268 2°42.038 -999 2.990388 31.072767 1.106477
2003-02-13 08:09:26 51°14.263 2°42.009 -999 2.990493 31.073151 1.241315
2003-02-13 08:09:31 51°14.259 2°41.979 -999 2.991546 31.086882 1.106477
2003-02-13 08:09:36 51°14.254 2°41.949 -999 2.991546 31.086882 1.106477
2003-02-13 08:09:40 51°14.25 2°41.926 -999 2.989757 31.066342 0.904221
2003-02-13 08:09:46 51°14.245 2°41.89 -999 2.992178 31.096607 1.308734
2003-02-13 08:09:51 51°14.241 2°41.86 -999 2.99123 31.08903 0.93793
2003-02-13 08:09:56 51°14.236 2°41.831 -999 2.989757 31.070463 1.039059
2003-02-13 08:10:02 51°14.23 2°41.795 -999 2.991757 31.092598 1.005349
2003-02-13 08:10:06 51°14.227 2°41.771 -999 2.991757 31.092598 1.005349
2003-02-13 08:10:11 51°14.223 2°41.741 -999 2.993125 31.107483 0.97164
2003-02-13 08:10:16 51°14.218 2°41.712 -999 2.993967 31.112199 1.072768
2003-02-13 08:10:21 51°14.214 2°41.682 -999 2.997125 31.143496 1.275024
2003-02-13 08:10:26 51°14.208 2°41.653 -999 2.998072 31.149414 1.072768
2003-02-13 08:10:31 51°14.203 2°41.624 -999 3.000387 31.171037 1.140187
2003-02-13 08:10:36 51°14.198 2°41.596 -999 3.000387 31.171037 1.140187
2003-02-13 08:10:41 51°14.193 2°41.571 -999 3.001756 31.181784 1.106477
2003-02-13 08:10:46 51°14.188 2°41.547 -999 3.000072 31.156674 1.072768
2003-02-13 08:10:51 51°14.183 2°41.524 -999 3.003229 31.189602 0.97164
2003-02-13 08:10:56 51°14.178 2°41.502 -999 3.002808 31.183119 1.072768
2003-02-13 08:11:01 51°14.174 2°41.482 -999 3.003019 31.183881 1.106477
2003-02-13 08:11:07 51°14.169 2°41.459 -999 3.003019 31.183881 1.106477
2003-02-13 08:11:11 51°14.166 2°41.445 -999 3.005229 31.20759 0.97164
2003-02-13 08:11:16 51°14.161 2°41.428 -999 3.004492 31.199962 1.005349
2003-02-13 08:11:21 51°14.157 2°41.413 -999 3.005229 31.206763 0.93793
2003-02-13 08:11:26 51°14.153 2°41.398 -999 3.005229 31.204283 0.836802
2003-02-13 08:11:31 51°14.148 2°41.385 -999 3.00544 31.205871 1.072768
2003-02-13 08:11:36 51°14.144 2°41.372 -999 3.00544 31.205871 1.072768
2003-02-13 08:11:41 51°14.139 2°41.36 -999 3.00565 31.206633 1.207606
2003-02-13 08:11:47 51°14.134 2°41.346 -999 3.006703 31.219535 1.005349
2003-02-13 08:11:51 51°14.13 2°41.338 -999 3.004808 31.197799 1.072768
2003-02-13 08:11:56 51°14.126 2°41.328 -999 3.007124 31.226847 1.005349
2003-02-13 08:12:01 51°14.122 2°41.318 -999 3.006808 31.22157 1.275024
2003-02-13 08:12:06 51°14.118 2°41.308 -999 3.006808 31.22157 1.275024
2003-02-13 08:12:11 51°14.114 2°41.299 -999 3.006703 31.221189 1.005349
2003-02-13 08:12:16 51°14.11 2°41.29 -999 3.00765 31.231231 0.97164
2003-02-13 08:12:21 51°14.106 2°41.281 -999 3.009124 31.248968 0.803093
2003-02-13 08:12:26 51°14.103 2°41.272 -999 3.008913 31.243241 0.836802
2003-02-13 08:12:31 51°14.1 2°41.263 -999 3.010071 31.25487 1.039059
2003-02-13 08:12:36 51°14.097 2°41.255 -999 3.010071 31.25487 1.039059
2003-02-13 08:12:41 51°14.095 2°41.246 -999 3.009966 31.253663 0.904221
2003-02-13 08:12:46 51°14.093 2°41.238 -999 3.010387 31.256838 0.836802
2003-02-13 08:12:51 51°14.091 2°41.229 -999 3.00986 31.249972 1.173896
2003-02-13 08:12:56 51°14.09 2°41.221 -999 3.008492 31.232619 1.106477
2003-02-13 08:13:01 51°14.089 2°41.213 -999 3.010387 31.254354 1.005349
2003-02-13 08:13:06 51°14.089 2°41.206 -999 3.010387 31.254354 1.005349
2003-02-13 08:13:11 51°14.089 2°41.198 -999 3.01165 31.268845 1.072768
2003-02-13 08:13:16 51°14.089 2°41.191 -999 3.011018 31.259116 1.005349
2003-02-13 08:13:21 51°14.09 2°41.184 -999 3.010808 31.254218 1.275024
2003-02-13 08:13:27 51°14.091 2°41.176 -999 3.010281 31.247353 0.93793
2003-02-13 08:13:31 51°14.092 2°41.17 -999 3.01165 31.266361 1.039059
2003-02-13 08:13:36 51°14.094 2°41.164 -999 3.01165 31.266361 1.039059
2003-02-13 08:13:41 51°14.095 2°41.158 -999 3.013123 31.282438 1.140187
2003-02-13 08:13:46 51°14.097 2°41.152 -999 3.011755 31.267568 0.668255
2003-02-13 08:13:51 51°14.099 2°41.147 7.50981 3.010387 31.252699 0.93793
2003-02-13 08:13:56 51°14.102 2°41.142 8.009536 3.008808 31.234587 1.005349
2003-02-13 08:14:02 51°14.105 2°41.136 8.048749 3.007439 31.222199 0.97164
2003-02-13 08:14:06 51°14.107 2°41.132 8.048749 3.007439 31.222199 0.97164
2003-02-13 08:14:11 51°14.11 2°41.128 8.243685 3.006913 31.213682 0.870512
2003-02-13 08:14:16 51°14.112 2°41.124 7.524968 3.009439 31.243486 0.803093
2003-02-13 08:14:21 51°14.115 2°41.12 7.725725 3.008808 31.237896 0.97164
2003-02-13 08:14:26 51°14.118 2°41.116 7.725822 3.009229 31.240244 0.836802
2003-02-13 08:14:31 51°14.121 2°41.113 8.202421 3.008282 31.229377 0.904221
2003-02-13 08:14:36 51°14.123 2°41.11 8.202421 3.008282 31.229377 0.904221
2003-02-13 08:14:41 51°14.126 2°41.108 7.526381 3.010071 31.252387 0.93793
2003-02-13 08:14:46 51°14.128 2°41.106 7.761859 3.008597 31.240446 0.870512
2003-02-13 08:14:51 51°14.129 2°41.105 7.56813 3.008387 31.240513 1.140187
2003-02-13 08:14:56 51°14.131 2°41.104 7.309205 3.009018 31.249416 1.308734
2003-02-13 08:15:02 51°14.132 2°41.103 7.366292 3.006176 31.217632 0.836802
2003-02-13 08:15:06 51°14.133 2°41.102 7.366292 3.006176 31.217632 0.836802
2003-02-13 08:15:11 51°14.134 2°41.102 7.209131 3.006071 31.218079 0.904221
2003-02-13 08:15:16 51°14.134 2°41.101 7.12891 3.007755 31.235749 0.904221
2003-02-13 08:15:22 51°14.136 2°41.1 7.130969 3.005019 31.205174 1.005349
2003-02-13 08:15:26 51°14.136 2°41.1 6.967034 3.005334 31.208797 0.735674
2003-02-13 08:15:31 51°14.137 2°41.099 7.128419 3.007545 31.234161 0.904221
2003-02-13 08:15:36 51°14.137 2°41.099 7.128419 3.007545 31.234161 0.904221
2003-02-13 08:15:41 51°14.138 2°41.098 7.245508 3.006282 31.21884 0.904221
2003-02-13 08:15:47 51°14.139 2°41.098 7.405265 3.003966 31.193097 0.836802
2003-02-13 08:15:51 51°14.139 2°41.097 7.606884 3.005229 31.206763 0.97164
2003-02-13 08:15:56 51°14.14 2°41.097 7.405997 3.004913 31.203966 1.072768
2003-02-13 08:16:01 51°14.141 2°41.097 7.405997 3.006597 31.222463 1.173896
2003-02-13 08:16:07 51°14.142 2°41.096 7.405997 3.006597 31.222463 1.173896
2003-02-13 08:16:11 51°14.142 2°41.096 7.447533 3.004177 31.195513 0.836802
2003-02-13 08:16:16 51°14.143 2°41.095 7.445191 3.007861 31.237785 1.140187
2003-02-13 08:16:21 51°14.144 2°41.094 7.447338 3.007124 31.22933 0.803093
2003-02-13 08:16:26 51°14.144 2°41.094 7.166656 3.00744 31.232953 0.870512
2003-02-13 08:16:31 51°14.145 2°41.094 7.569397 3.00744 31.232126 0.870512
2003-02-13 08:16:36 51°14.146 2°41.093 7.569397 3.00744 31.232126 0.870512
2003-02-13 08:16:41 51°14.147 2°41.092 7.369125 3.006597 31.223291 0.803093
2003-02-13 08:16:46 51°14.147 2°41.092 8.083107 3.00744 31.233781 0.803093
2003-02-13 08:16:51 51°14.148 2°41.091 7.248347 3.006176 31.219287 0.904221
2003-02-13 08:16:56 51°14.149 2°41.091 7.210012 3.008913 31.252348 0.803093
2003-02-13 08:17:01 51°14.149 2°41.09 7.687675 3.00765 31.235369 1.342443
2003-02-13 08:17:06 51°14.15 2°41.09 7.687675 3.00765 31.235369 1.342443
2003-02-13 08:17:11 51°14.151 2°41.089 6.766834 3.003756 31.189856 0.836802
2003-02-13 08:17:16 51°14.151 2°41.088 7.971944 3.006597 31.221636 0.904221
2003-02-13 08:17:21 51°14.152 2°41.088 6.80923 3.009229 31.254316 1.106477
2003-02-13 08:17:27 51°14.153 2°41.087 7.532423 3.006387 31.220048 0.836802
2003-02-13 08:17:31 51°14.154 2°41.087 7.175428 3.009229 31.251004 1.072768
2003-02-13 08:17:36 51°14.155 2°41.086 7.175428 3.009229 31.251004 1.072768
2003-02-13 08:17:41 51°14.156 2°41.085 7.495819 3.008703 31.244137 1.005349
2003-02-13 08:17:46 51°14.157 2°41.085 7.889039 3.008703 31.245792 1.072768
2003-02-13 08:17:51 51°14.158 2°41.084 7.490114 3.009334 31.251383 0.904221
2003-02-13 08:17:56 51°14.159 2°41.083 7.451973 3.007966 31.234855 0.904221
2003-02-13 08:18:02 51°14.16 2°41.082 7.209229 3.007229 31.226401 0.870512
2003-02-13 08:18:06 51°14.162 2°41.082 7.209229 3.007229 31.226401 0.870512
2003-02-13 08:18:11 51°14.163 2°41.081 7.049324 3.008387 31.238858 1.039059
2003-02-13 08:18:16 51°14.164 2°41.08 7.16989 3.009334 31.249728 0.870512
2003-02-13 08:18:21 51°14.165 2°41.079 7.286512 3.008703 31.243309 0.701965
2003-02-13 08:18:26 51°14.166 2°41.079 7.803601 3.007334 31.225954 0.803093
2003-02-13 08:18:31 51°14.168 2°41.078 6.800655 3.008703 31.243309 1.039059
2003-02-13 08:18:36 51°14.169 2°41.077 6.800655 3.008703 31.243309 1.039059
2003-02-13 08:18:41 51°14.17 2°41.077 7.138863 3.009545 31.255455 0.735674
2003-02-13 08:18:46 51°14.171 2°41.076 7.000208 3.007018 31.223985 0.836802
2003-02-13 08:18:51 51°14.172 2°41.075 7.39882 3.008808 31.244517 0.836802
2003-02-13 08:18:56 51°14.174 2°41.075 7.155334 3.008808 31.246172 0.769383
2003-02-13 08:19:01 51°14.175 2°41.074 7.558292 3.008387 31.242169 0.93793
2003-02-13 08:19:06 51°14.177 2°41.073 7.558292 3.008387 31.242169 0.93793
2003-02-13 08:19:11 51°14.178 2°41.073 7.476509 3.008808 31.247828 0.93793
2003-02-13 08:19:16 51°14.179 2°41.072 7.599924 3.007545 31.234989 0.668255
2003-02-13 08:19:21 51°14.181 2°41.071 7.196151 3.007334 31.2334 0.769383
2003-02-13 08:19:27 51°14.183 2°41.07 7.39672 3.007545 31.237472 0.735674
2003-02-13 08:19:31 51°14.184 2°41.07 7.07799 3.006176 31.221768 0.93793
2003-02-13 08:19:36 51°14.185 2°41.069 7.07799 3.006176 31.221768 0.93793
2003-02-13 08:19:42 51°14.187 2°41.068 7.357204 3.006913 31.234362 0.769383
2003-02-13 08:19:46 51°14.188 2°41.067 7.079512 3.005334 31.214587 0.600836
2003-02-13 08:19:52 51°14.19 2°41.067 6.712959 3.005019 31.21179 0.836802
2003-02-13 08:19:56 51°14.191 2°41.066 6.873511 3.007334 31.238367 0.904221
2003-02-13 08:20:02 51°14.193 2°41.065 7.713336 3.005966 31.223489 0.870512
2003-02-13 08:20:06 51°14.194 2°41.064 7.713336 3.005966 31.223489 0.870512
2003-02-13 08:20:11 51°14.196 2°41.063 7.112481 3.004387 31.204542 0.836802
2003-02-13 08:20:16 51°14.197 2°41.062 6.951055 3.005756 31.222728 0.870512
2003-02-13 08:20:21 51°14.199 2°41.061 7.272521 3.004703 31.210648 0.803093
2003-02-13 08:20:27 51°14.2 2°41.06 6.585788 3.004492 31.206577 0.803093
2003-02-13 08:20:31 51°14.202 2°41.06 6.786754 3.006492 31.231185 0.735674
2003-02-13 08:20:36 51°14.203 2°41.059 6.786754 3.006492 31.231185 0.735674
2003-02-13 08:20:41 51°14.205 2°41.058 7.149501 3.004598 31.211094 0.93793
2003-02-13 08:20:46 51°14.206 2°41.057 6.987481 3.004492 31.210713 0.769383
2003-02-13 08:20:51 51°14.208 2°41.056 6.662743 3.00565 31.224831 0.904221
2003-02-13 08:20:56 51°14.209 2°41.055 6.744194 3.00344 31.199459 0.735674
2003-02-13 08:21:01 51°14.211 2°41.054 6.781774 3.005124 31.220445 0.904221
2003-02-13 08:21:06 51°14.213 2°41.053 6.781774 3.005124 31.220445 0.904221
2003-02-13 08:21:12 51°14.215 2°41.052 6.780394 3.005335 31.222034 0.769383
2003-02-13 08:21:16 51°14.216 2°41.051 7.703763 3.004387 31.213642 0.634546
2003-02-13 08:21:21 51°14.218 2°41.05 6.819776 3.004598 31.216886 0.600836
2003-02-13 08:21:27 51°14.22 2°41.049 6.615998 3.005124 31.223755 0.836802
2003-02-13 08:21:31 51°14.221 2°41.048 6.778126 3.005019 31.224203 0.97164
2003-02-13 08:21:36 51°14.222 2°41.047 6.778126 3.005019 31.224203 0.97164
2003-02-13 08:21:41 51°14.224 2°41.046 7.103897 3.005019 31.224203 0.701965
2003-02-13 08:21:46 51°14.226 2°41.045 7.4669 3.003229 31.20366 0.904221
2003-02-13 08:21:51 51°14.228 2°41.044 6.984434 3.005229 31.229932 0.701965
2003-02-13 08:21:56 51°14.23 2°41.043 6.943186 3.004598 31.221852 0.904221
2003-02-13 08:22:01 51°14.231 2°41.042 7.062579 3.004072 31.21581 0.769383
2003-02-13 08:22:06 51°14.233 2°41.04 7.062579 3.004072 31.21581 0.769383
2003-02-13 08:22:11 51°14.235 2°41.039 7.385293 3.005545 31.234386 0.97164
2003-02-13 08:22:16 51°14.237 2°41.038 7.024574 3.002387 31.196475 0.735674
2003-02-13 08:22:22 51°14.239 2°41.036 6.82155 3.003756 31.212184 0.769383
2003-02-13 08:22:26 51°14.24 2°41.035 7.422791 3.00565 31.232282 0.701965
2003-02-13 08:22:31 51°14.242 2°41.035 7.268117 3.004177 31.215363 0.836802
2003-02-13 08:22:36 51°14.244 2°41.034 7.268117 3.004177 31.215363 0.836802
2003-02-13 08:22:41 51°14.246 2°41.032 7.185864 3.005966 31.234251 1.005349
2003-02-13 08:22:47 51°14.248 2°41.03 6.782859 3.004703 31.223061 0.870512
2003-02-13 08:22:51 51°14.25 2°41.028 7.544604 3.003229 31.206142 0.803093
2003-02-13 08:22:56 51°14.253 2°41.025 7.345037 3.006492 31.242778 0.735674
2003-02-13 08:23:02 51°14.257 2°41.02 7.304999 3.006598 31.245644 0.701965
2003-02-13 08:23:06 51°14.259 2°41.016 7.304999 3.006598 31.245644 0.701965
2003-02-13 08:23:11 51°14.262 2°41.01 7.47129 3.005966 31.235907 0.668255
2003-02-13 08:23:16 51°14.265 2°41.003 7.040437 3.006808 31.247233 0.836802
2003-02-13 08:23:21 51°14.266 2°40.995 6.930005 3.007229 31.251239 1.005349
2003-02-13 08:23:26 51°14.267 2°40.987 7.733789 3.003861 31.21091 0.836802
2003-02-13 08:23:31 51°14.267 2°40.978 7.010427 3.004282 31.216571 0.904221
2003-02-13 08:23:36 51°14.267 2°40.97 7.010427 3.004282 31.216571 0.904221
2003-02-13 08:23:41 51°14.265 2°40.961 7.408634 3.006387 31.242398 1.409862
2003-02-13 08:23:47 51°14.262 2°40.951 7.124594 3.007545 31.255693 0.735674
2003-02-13 08:23:51 51°14.26 2°40.945 7.325974 3.007124 31.246716 0.668255
2003-02-13 08:23:56 51°14.256 2°40.938 7.003205 3.010597 31.281625 0.97164
2003-02-13 08:24:01 51°14.252 2°40.932 6.759189 3.01165 31.288734 0.701965
2003-02-13 08:24:06 51°14.247 2°40.927 6.759189 3.01165 31.288734 0.701965
2003-02-13 08:24:11 51°14.243 2°40.924 7.239488 3.012492 31.295084 0.803093
2003-02-13 08:24:16 51°14.238 2°40.921 7.596468 3.012597 31.295463 0.769383
2003-02-13 08:24:21 51°14.234 2°40.918 7.553567 3.013755 31.310414 0.836802
2003-02-13 08:24:27 51°14.23 2°40.916 7.232193 3.011334 31.28345 0.870512
2003-02-13 08:24:31 51°14.228 2°40.914 7.512491 3.01165 31.287905 0.803093
2003-02-13 08:24:36 51°14.226 2°40.913 7.512491 3.01165 31.287905 0.803093
2003-02-13 08:24:40 51°14.224 2°40.912 7.190714 3.014492 31.320533 1.106477
2003-02-13 08:24:46 51°14.221 2°40.91 7.270955 3.01165 31.289563 1.005349
2003-02-13 08:24:51 51°14.22 2°40.909 6.711281 3.012282 31.298473 0.668255
2003-02-13 08:24:56 51°14.217 2°40.908 7.354028 3.010913 31.28525 0.870512
2003-02-13 08:25:01 51°14.216 2°40.908 7.432845 3.010071 31.276411 0.735674
2003-02-13 08:25:06 51°14.215 2°40.907 7.432845 3.010071 31.276411 0.735674
2003-02-13 08:25:11 51°14.214 2°40.906 7.392472 3.00965 31.271577 0.97164
2003-02-13 08:25:16 51°14.212 2°40.906 7.872465 3.010913 31.286909 0.735674
2003-02-13 08:25:21 51°14.211 2°40.905 7.076911 3.011545 31.291672 0.836802
2003-02-13 08:25:26 51°14.21 2°40.905 6.996474 3.010808 31.2857 0.803093
2003-02-13 08:25:31 51°14.208 2°40.905 7.038375 3.009229 31.268401 0.904221
2003-02-13 08:25:36 51°14.207 2°40.904 7.038375 3.009229 31.268401 0.904221
2003-02-13 08:25:41 51°14.206 2°40.904 7.322797 3.008387 31.257075 1.005349
2003-02-13 08:25:46 51°14.205 2°40.903 7.600216 3.007756 31.251482 0.634546
2003-02-13 08:25:51 51°14.203 2°40.903 7.236502 3.008913 31.263118 0.769383
2003-02-13 08:25:56 51°14.202 2°40.903 6.550417 3.009755 31.272785 0.803093
2003-02-13 08:26:02 51°14.2 2°40.902 7.234984 3.009966 31.276032 0.769383
2003-02-13 08:26:06 51°14.199 2°40.902 7.234984 3.009966 31.276032 0.769383
2003-02-13 08:26:11 51°14.198 2°40.902 7.197719 3.008598 31.257835 0.769383
2003-02-13 08:26:16 51°14.197 2°40.902 6.835098 3.008387 31.25459 0.668255
2003-02-13 08:26:20 51°14.196 2°40.902 7.030075 3.011124 31.28435 0.735674
2003-02-13 08:26:27 51°14.194 2°40.902 7.141854 3.011229 31.287217 0.93793
2003-02-13 08:26:31 51°14.193 2°40.902 7.458803 3.008387 31.253761 0.769383
2003-02-13 08:26:36 51°14.191 2°40.902 7.458803 3.008387 31.253761 0.769383
2003-02-13 08:26:41 51°14.19 2°40.902 7.057523 3.008598 31.257006 0.870512
2003-02-13 08:26:47 51°14.189 2°40.902 6.383489 3.008703 31.259043 0.97164
2003-02-13 08:26:51 51°14.188 2°40.902 7.059045 3.010703 31.282004 0.803093
2003-02-13 08:26:56 51°14.186 2°40.902 7.337021 3.008808 31.260252 0.904221
2003-02-13 08:27:01 51°14.185 2°40.902 6.735659 3.008282 31.259181 0.701965
2003-02-13 08:27:06 51°14.184 2°40.902 6.735659 3.008282 31.259181 0.701965
2003-02-13 08:27:11 51°14.182 2°40.902 7.534957 3.008598 31.264465 0.668255
2003-02-13 08:27:16 51°14.181 2°40.902 7.457681 3.006598 31.24813 0.769383
2003-02-13 08:27:21 51°14.18 2°40.903 6.811497 3.005545 31.236871 0.836802
2003-02-13 08:27:26 51°14.178 2°40.903 7.215252 3.00765 31.262705 0.668255
2003-02-13 08:27:31 51°14.177 2°40.903 7.016322 3.004387 31.225231 0.668255
2003-02-13 08:27:36 51°14.176 2°40.904 7.016322 3.004387 31.225231 0.668255
2003-02-13 08:27:41 51°14.175 2°40.904 7.579331 3.004493 31.228096 1.072768
2003-02-13 08:27:46 51°14.173 2°40.904 7.33707 3.004177 31.225298 0.735674
2003-02-13 08:27:51 51°14.172 2°40.905 7.177388 3.006387 31.250684 0.904221
2003-02-13 08:27:56 51°14.171 2°40.905 6.976865 3.003124 31.214038 1.072768
2003-02-13 08:28:01 51°14.169 2°40.905 7.059732 3.004177 31.226954 0.836802
2003-02-13 08:28:06 51°14.168 2°40.906 7.059732 3.004177 31.226954 0.836802
2003-02-13 08:28:11 51°14.167 2°40.907 6.977848 3.003966 31.224537 0.836802
2003-02-13 08:28:16 51°14.166 2°40.907 7.098795 3.004282 31.226507 0.701965
2003-02-13 08:28:21 51°14.165 2°40.907 7.538806 3.005335 31.237767 0.701965
2003-02-13 08:28:26 51°14.163 2°40.908 7.139746 3.005124 31.236177 0.634546
2003-02-13 08:28:31 51°14.162 2°40.909 7.465925 3.002703 31.208375 0.769383
2003-02-13 08:28:36 51°14.161 2°40.909 7.465925 3.002703 31.208375 0.769383
2003-02-13 08:28:41 51°14.16 2°40.91 7.105368 3.000809 31.185792 0.567127
2003-02-13 08:28:46 51°14.159 2°40.91 7.18361 3.00123 31.190626 0.634546
2003-02-13 08:28:51 51°14.157 2°40.911 6.743503 3.002598 31.206339 0.533418
2003-02-13 08:28:56 51°14.156 2°40.912 6.79124 3.002282 31.20354 0.836802
2003-02-13 08:29:01 51°14.155 2°40.913 7.033415 3.005756 31.241774 0.668255
2003-02-13 08:29:06 51°14.154 2°40.913 7.033415 3.005756 31.241774 0.668255
2003-02-13 08:29:11 51°14.153 2°40.914 6.62702 3.006914 31.252585 0.634546
2003-02-13 08:29:16 51°14.151 2°40.915 6.709652 3.005335 31.233625 1.173896
2003-02-13 08:29:22 51°14.15 2°40.916 7.074162 3.006492 31.245264 0.668255
2003-02-13 08:29:26 51°14.149 2°40.916 7.194339 3.006914 31.250099 0.668255
2003-02-13 08:29:31 51°14.148 2°40.917 7.353148 3.005019 31.227514 0.701965
2003-02-13 08:29:36 51°14.146 2°40.918 7.353148 3.005019 31.227514 0.701965
2003-02-13 08:29:41 51°14.145 2°40.919 7.389981 3.005861 31.233871 0.701965
2003-02-13 08:29:46 51°14.144 2°40.919 7.187677 3.007229 31.248753 0.567127
2003-02-13 08:29:52 51°14.143 2°40.92 6.988317 3.007861 31.253519 1.005349
2003-02-13 08:29:56 51°14.142 2°40.921 6.341254 3.008387 31.259561 1.072768
2003-02-13 08:30:01 51°14.141 2°40.922 7.028111 3.008598 31.260321 0.533418
2003-02-13 08:30:06 51°14.14 2°40.923 7.028111 3.008598 31.260321 0.533418
2003-02-13 08:30:11 51°14.139 2°40.923 6.826378 3.006282 31.232908 0.701965
2003-02-13 08:30:16 51°14.137 2°40.924 7.228277 3.005861 31.229731 0.600836
2003-02-13 08:30:21 51°14.136 2°40.925 7.064984 3.008387 31.262048 0.701965
2003-02-13 08:30:26 51°14.135 2°40.926 7.144158 3.007229 31.247096 0.769383
2003-02-13 08:30:31 51°14.134 2°40.927 7.104829 3.006492 31.239465 0.769383
2003-02-13 08:30:36 51°14.133 2°40.928 7.104829 3.006492 31.239465 0.769383
2003-02-13 08:30:41 51°14.132 2°40.929 7.203058 3.004703 31.220577 0.634546
2003-02-13 08:30:46 51°14.131 2°40.929 7.192086 3.005229 31.225792 0.567127
2003-02-13 08:30:52 51°14.13 2°40.931 7.631409 3.006282 31.238705 0.701965
2003-02-13 08:30:56 51°14.129 2°40.931 6.99097 3.007545 31.255693 0.634546
2003-02-13 08:31:01 51°14.128 2°40.932 7.112922 3.005124 31.225411 0.567127
2003-02-13 08:31:06 51°14.127 2°40.933 7.112922 3.005124 31.225411 0.567127
2003-02-13 08:31:11 51°14.126 2°40.934 6.994361 3.00565 31.234766 0.701965
2003-02-13 08:31:16 51°14.124 2°40.935 7.233368 3.006808 31.247233 0.836802
2003-02-13 08:31:21 51°14.123 2°40.936 7.557416 3.00544 31.229865 0.567127
2003-02-13 08:31:26 51°14.122 2°40.937 7.235131 3.00544 31.227381 0.634546
2003-02-13 08:31:31 51°14.121 2°40.938 6.915296 3.006492 31.241122 0.701965
2003-02-13 08:31:36 51°14.12 2°40.938 6.915296 3.006492 31.241122 0.701965
2003-02-13 08:31:41 51°14.119 2°40.939 7.358474 3.007545 31.249065 0.735674
2003-02-13 08:31:47 51°14.118 2°40.94 6.955283 3.005861 31.230558 0.533418
2003-02-13 08:31:51 51°14.117 2°40.941 6.671634 3.006387 31.237428 0.668255
2003-02-13 08:31:56 51°14.116 2°40.942 7.195417 3.007334 31.244991 0.735674
2003-02-13 08:32:02 51°14.115 2°40.943 7.196396 3.008703 31.261529 0.701965
2003-02-13 08:32:06 51°14.114 2°40.944 7.196396 3.008703 31.261529 0.701965
2003-02-13 08:32:11 51°14.113 2°40.945 7.23518 3.006913 31.237674 0.701965
2003-02-13 08:32:16 51°14.112 2°40.946 7.273744 3.008071 31.252622 0.904221
2003-02-13 08:32:22 51°14.11 2°40.947 6.831847 3.006492 31.234497 0.668255
2003-02-13 08:32:26 51°14.11 2°40.948 7.353686 3.007229 31.242955 0.533418
2003-02-13 08:32:31 51°14.109 2°40.95 7.033464 3.007334 31.242507 0.600836
2003-02-13 08:32:36 51°14.107 2°40.951 7.033464 3.007334 31.242507 0.600836
2003-02-13 08:32:41 51°14.106 2°40.952 6.224428 3.007755 31.249825 0.668255
2003-02-13 08:32:46 51°14.105 2°40.953 6.954497 3.005545 31.22445 0.600836
2003-02-13 08:32:52 51°14.104 2°40.954 6.996228 3.006071 31.230491 0.701965
2003-02-13 08:32:56 51°14.103 2°40.955 6.834261 3.006598 31.238189 0.634546
2003-02-13 08:33:01 51°14.102 2°40.956 7.480166 3.005756 31.227694 0.836802
2003-02-13 08:33:06 51°14.101 2°40.958 7.480166 3.005756 31.227694 0.836802
2003-02-13 08:33:11 51°14.1 2°40.959 7.524919 3.006071 31.232975 0.600836
2003-02-13 08:33:16 51°14.099 2°40.96 7.406046 3.006492 31.236981 0.668255
2003-02-13 08:33:21 51°14.098 2°40.962 7.124104 3.005756 31.226039 0.600836
2003-02-13 08:33:27 51°14.097 2°40.963 7.20727 3.00565 31.226486 0.735674
2003-02-13 08:33:31 51°14.096 2°40.964 7.726114 3.006703 31.236085 0.533418
2003-02-13 08:33:36 51°14.095 2°40.965 -999 -999 -999 -2.871232
2003-02-13 08:33:41 51°14.094 2°40.967 7.769141 3.006177 31.229216 0.600836
2003-02-13 08:33:46 51°14.094 2°40.968 7.089424 3.00944 31.264187 0.567127
2003-02-13 08:33:51 51°14.093 2°40.97 7.770306 3.008071 31.245996 0.465999
2003-02-13 08:33:56 51°14.092 2°40.971 7.094232 3.008808 31.252796 0.499708
2003-02-13 08:34:01 51°14.091 2°40.972 6.768461 3.008703 31.251588 0.634546
2003-02-13 08:34:07 51°14.09 2°40.974 6.768461 3.008703 31.251588 0.634546
2003-02-13 08:34:11 51°14.089 2°40.975 6.643278 3.009861 31.264049 0.533418
2003-02-13 08:34:16 51°14.088 2°40.976 7.248053 3.008282 31.244272 0.499708
2003-02-13 08:34:22 51°14.087 2°40.978 7.090503 3.008808 31.25114 0.735674
2003-02-13 08:34:26 51°14.087 2°40.979 7.048146 3.010387 31.265947 0.600836
2003-02-13 08:34:32 51°14.086 2°40.981 6.645403 3.009755 31.258699 0.499708
2003-02-13 08:34:36 51°14.085 2°40.982 6.645403 3.009755 31.258699 0.499708
2003-02-13 08:34:41 51°14.084 2°40.983 6.521611 3.010282 31.264739 0.600836
2003-02-13 08:34:47 51°14.083 2°40.985 6.969049 3.008597 31.24624 0.567127
2003-02-13 08:34:51 51°14.083 2°40.986 6.766143 3.010071 31.262323 0.499708
2003-02-13 08:34:56 51°14.082 2°40.987 7.048195 3.011545 31.280893 0.634546
2003-02-13 08:35:01 51°14.082 2°40.989 7.011361 3.012176 31.286484 0.634546
2003-02-13 08:35:06 51°14.081 2°40.99 7.011361 3.012176 31.286484 0.634546
2003-02-13 08:35:11 51°14.08 2°40.991 10.500095 3.011124 31.276061 0.499708
2003-02-13 08:35:16 51°14.08 2°40.993 6.772406 3.009018 31.251072 0.634546
2003-02-13 08:35:21 51°14.079 2°40.994 6.851993 3.010913 31.275302 0.499708
2003-02-13 08:35:26 51°14.079 2°40.996 6.771223 3.010492 31.267984 0.567127
2003-02-13 08:35:31 51°14.078 2°40.997 6.609472 3.010071 31.26398 0.634546
2003-02-13 08:35:36 51°14.077 2°40.998 6.609472 3.010071 31.26398 0.634546
2003-02-13 08:35:41 51°14.076 2°41 6.85288 3.009755 31.258699 0.735674
2003-02-13 08:35:46 51°14.076 2°41.001 6.650146 3.009124 31.250624 0.634546
2003-02-13 08:35:51 51°14.075 2°41.002 6.896745 3.012703 31.291696 0.634546
2003-02-13 08:35:56 51°14.075 2°41.004 7.298446 3.010703 31.268743 0.499708
2003-02-13 08:36:01 51°14.074 2°41.005 7.339221 3.010703 31.266258 0.499708
2003-02-13 08:36:07 51°14.073 2°41.007 7.339221 3.010703 31.266258 0.499708
2003-02-13 08:36:11 51°14.073 2°41.008 7.701187 3.00965 31.253351 0.567127
2003-02-13 08:36:16 51°14.073 2°41.01 7.459583 3.011755 31.277508 0.668255
2003-02-13 08:36:21 51°14.072 2°41.011 7.298104 3.013439 31.297665 0.634546
2003-02-13 08:36:26 51°14.071 2°41.013 7.297468 3.010913 31.268673 0.634546
2003-02-13 08:36:32 51°14.071 2°41.014 6.735659 3.011966 31.279924 0.465999
2003-02-13 08:36:36 51°14.07 2°41.015 6.735659 3.011966 31.279924 0.465999
2003-02-13 08:36:41 51°14.07 2°41.016 6.936301 3.012702 31.286722 1.342443
2003-02-13 08:36:46 51°14.069 2°41.018 6.638683 3.014281 31.303183 0.668255
2003-02-13 08:36:51 51°14.068 2°41.019 7.019024 3.013755 31.296315 0.600836
2003-02-13 08:36:56 51°14.068 2°41.021 7.097568 3.01386 31.299181 0.465999
2003-02-13 08:37:01 51°14.067 2°41.022 6.574164 3.011439 31.271399 0.701965
2003-02-13 08:37:06 51°14.066 2°41.023 6.574164 3.011439 31.271399 0.701965
2003-02-13 08:37:11 51°14.066 2°41.025 6.736843 3.011018 31.266568 0.499708
2003-02-13 08:37:16 51°14.065 2°41.026 7.379774 3.011755 31.275851 0.668255
2003-02-13 08:37:22 51°14.064 2°41.028 7.180621 3.011545 31.273435 0.533418
2003-02-13 08:37:26 51°14.063 2°41.029 6.941514 3.01386 31.30001 0.668255
2003-02-13 08:37:31 51°14.063 2°41.03 6.943531 3.010281 31.257286 0.432289
2003-02-13 08:37:36 51°14.062 2°41.031 6.943531 3.010281 31.257286 0.432289
2003-02-13 08:37:42 51°14.061 2°41.033 7.027227 3.010071 31.25487 0.567127
2003-02-13 08:37:46 51°14.06 2°41.034 7.105613 3.010492 31.258873 0.634546
2003-02-13 08:37:51 51°14.06 2°41.035 6.824752 3.011334 31.267707 0.499708
2003-02-13 08:37:56 51°14.059 2°41.036 6.946285 3.011334 31.268535 0.533418
2003-02-13 08:38:01 51°14.058 2°41.037 7.14857 3.012913 31.286652 0.600836
2003-02-13 08:38:06 51°14.057 2°41.039 7.14857 3.012913 31.286652 0.600836
2003-02-13 08:38:11 51°14.056 2°41.04 6.582771 3.014176 31.300317 0.533418
2003-02-13 08:38:16 51°14.055 2°41.041 6.947268 3.012702 31.282579 0.465999
2003-02-13 08:38:21 51°14.055 2°41.043 7.109341 3.013755 31.292999 0.432289
2003-02-13 08:38:26 51°14.054 2°41.044 6.747401 3.013018 31.283716 0.567127
2003-02-13 08:38:31 51°14.053 2°41.045 6.830073 3.014281 31.29738 0.701965
2003-02-13 08:38:36 51°14.052 2°41.046 6.830073 3.014281 31.29738 0.701965
2003-02-13 08:38:41 51°14.051 2°41.047 6.953021 3.012281 31.274434 0.634546
2003-02-13 08:38:46 51°14.05 2°41.049 7.273793 3.012492 31.275193 0.701965
2003-02-13 08:38:51 51°14.049 2°41.05 6.952726 3.013334 31.284025 0.39858
2003-02-13 08:38:56 51°14.048 2°41.051 7.073966 3.014702 31.302211 0.533418
2003-02-13 08:39:01 51°14.047 2°41.053 6.873856 3.014702 31.299724 0.600836
2003-02-13 08:39:06 51°14.046 2°41.054 6.873856 3.014702 31.299724 0.600836
2003-02-13 08:39:12 51°14.044 2°41.056 6.835542 3.014913 31.301311 0.533418
2003-02-13 08:39:16 51°14.043 2°41.057 7.28074 3.014281 31.292408 0.533418
2003-02-13 08:39:21 51°14.042 2°41.058 7.363263 3.01365 31.285163 0.735674
2003-02-13 08:39:26 51°14.041 2°41.059 6.520176 3.013755 31.284713 0.567127
2003-02-13 08:39:31 51°14.04 2°41.061 7.164745 3.013229 31.277848 1.039059
2003-02-13 08:39:36 51°14.038 2°41.062 7.164745 3.013229 31.277848 1.039059
2003-02-13 08:39:41 51°14.037 2°41.063 6.926709 3.012492 31.270225 0.567127
2003-02-13 08:39:47 51°14.035 2°41.064 6.926218 3.012176 31.264947 0.499708
2003-02-13 08:39:52 51°14.034 2°41.065 6.579061 3.014176 31.28623 0.567127
2003-02-13 08:39:56 51°14.032 2°41.066 6.850072 3.01386 31.280951 0.600836
2003-02-13 08:40:01 51°14.031 2°41.067 7.014505 3.013123 31.270017 0.600836
2003-02-13 08:40:06 51°14.029 2°41.068 7.014505 3.013123 31.270017 0.600836
2003-02-13 08:40:11 51°14.028 2°41.069 7.052761 3.014176 31.279605 0.465999
2003-02-13 08:40:16 51°14.026 2°41.07 7.096342 3.013755 31.273121 0.499708
2003-02-13 08:40:20 51°14.025 2°41.071 7.012245 3.014176 31.276293 0.465999
2003-02-13 08:40:26 51°14.022 2°41.072 6.768905 3.014702 31.2815 0.432289
2003-02-13 08:40:31 51°14.021 2°41.072 7.053006 3.016807 31.303984 0.533418
2003-02-13 08:40:36 51°14.019 2°41.073 7.053006 3.016807 31.303984 0.533418
2003-02-13 08:40:41 51°14.017 2°41.073 6.726333 3.016492 31.29705 0.533418
2003-02-13 08:40:46 51°14.016 2°41.074 6.809477 3.015544 31.286188 0.600836